Wetterdaten: Donnerstag, 04.04.2019
Datum Zeit Temp. Aussen Temp. o. S. +5cm Feuchte Auss Luftdruck Regen Sonnenschein Regendauer Solar Windben Empfang
04.04.2019 00:00 6,6 C 6,1 C 5,0 C 86 % 998,2 hPa 0,0 l/m 0 min 0 min 0 W/m 3,2 km/h (1 Bft) 93,62 %
04.04.2019 00:02 6,6 C 6,1 C 5,0 C 86 % 998,1 hPa 0,0 l/m 0 min 0 min 0 W/m 6,4 km/h (2 Bft) 94,87 %
04.04.2019 00:04 6,5 C 5,6 C 5,0 C 87 % 998,0 hPa 0,0 l/m 0 min 0 min 0 W/m 0,0 km/h (0 Bft) 93,62 %
04.04.2019 00:07 6,5 C 6,1 C 5,0 C 87 % 998,3 hPa 0,0 l/m 0 min 0 min 0 W/m 3,2 km/h (1 Bft) 95,71 %
04.04.2019 00:08 6,5 C 6,1 C 5,0 C 87 % 998,3 hPa 0,0 l/m 0 min 0 min 0 W/m 3,2 km/h (1 Bft) 95,83 %
04.04.2019 00:10 6,5 C 5,6 C 5,0 C 87 % 998,3 hPa 0,0 l/m 0 min 0 min 0 W/m 6,4 km/h (2 Bft) 97,83 %
04.04.2019 00:12 6,5 C 5,6 C 5,0 C 87 % 998,3 hPa 0,0 l/m 0 min 0 min 0 W/m 3,2 km/h (1 Bft) 97,87 %
04.04.2019 00:14 6,5 C 5,6 C 5,0 C 87 % 998,3 hPa 0,0 l/m 0 min 0 min 0 W/m 3,2 km/h (1 Bft) 97,87 %
04.04.2019 00:16 6,5 C 5,6 C 5,0 C 87 % 998,4 hPa 0,0 l/m 0 min 0 min 0 W/m 3,2 km/h (1 Bft) 95,74 %
04.04.2019 00:18 6,5 C 5,6 C 5,0 C 87 % 998,5 hPa 0,0 l/m 0 min 0 min 0 W/m 3,2 km/h (1 Bft) 97,87 %
04.04.2019 00:20 6,5 C 5,6 C 5,0 C 87 % 998,6 hPa 0,0 l/m 0 min 0 min 0 W/m 6,4 km/h (2 Bft) 97,83 %
04.04.2019 00:22 6,4 C 5,6 C 5,0 C 87 % 998,6 hPa 0,0 l/m 0 min 0 min 0 W/m 6,4 km/h (2 Bft) 97,87 %
04.04.2019 00:24 6,4 C 5,6 C 5,0 C 87 % 998,7 hPa 0,0 l/m 0 min 0 min 0 W/m 6,4 km/h (2 Bft) 97,87 %
04.04.2019 00:26 6,4 C 5,6 C 5,0 C 87 % 998,7 hPa 0,0 l/m 0 min 0 min 0 W/m 3,2 km/h (1 Bft) 97,87 %
04.04.2019 00:28 6,4 C 5,6 C 5,0 C 87 % 998,6 hPa 0,0 l/m 0 min 0 min 0 W/m 3,2 km/h (1 Bft) 97,87 %
04.04.2019 00:30 6,4 C 5,6 C 5,0 C 87 % 998,6 hPa 0,0 l/m 0 min 0 min 0 W/m 6,4 km/h (2 Bft) 97,87 %
04.04.2019 00:32 6,4 C 5,6 C 5,0 C 87 % 998,5 hPa 0,0 l/m 0 min 0 min 0 W/m 6,4 km/h (2 Bft) 97,83 %
04.04.2019 00:34 6,4 C 5,6 C 5,0 C 87 % 998,4 hPa 0,0 l/m 0 min 0 min 0 W/m 9,7 km/h (2 Bft) 95,74 %
04.04.2019 00:36 6,4 C 5,6 C 5,0 C 87 % 998,3 hPa 0,0 l/m 0 min 0 min 0 W/m 6,4 km/h (2 Bft) 100,00 %
04.04.2019 00:38 6,4 C 6,1 C 5,0 C 87 % 998,3 hPa 0,0 l/m 0 min 0 min 0 W/m 6,4 km/h (2 Bft) 100,00 %
04.04.2019 00:40 6,4 C 5,6 C 5,0 C 87 % 998,3 hPa 0,0 l/m 0 min 0 min 0 W/m 6,4 km/h (2 Bft) 100,00 %
04.04.2019 00:42 6,4 C 5,6 C 5,0 C 87 % 998,2 hPa 0,0 l/m 0 min 0 min 0 W/m 6,4 km/h (2 Bft) 100,00 %
04.04.2019 00:44 6,4 C 5,6 C 5,0 C 87 % 998,3 hPa 0,0 l/m 0 min 0 min 0 W/m 3,2 km/h (1 Bft) 97,87 %
04.04.2019 00:46 6,4 C 5,6 C 5,0 C 87 % 998,5 hPa 0,0 l/m 0 min 0 min 0 W/m 0,0 km/h (0 Bft) 95,74 %
04.04.2019 00:48 6,3 C 5,6 C 5,0 C 87 % 998,6 hPa 0,0 l/m 0 min 0 min 0 W/m 3,2 km/h (1 Bft) 100,00 %
04.04.2019 00:50 6,3 C 5,6 C 5,0 C 88 % 998,5 hPa 0,0 l/m 0 min 0 min 0 W/m 3,2 km/h (1 Bft) 100,00 %
04.04.2019 00:52 6,4 C 5,6 C 5,0 C 88 % 998,5 hPa 0,0 l/m 0 min 0 min 0 W/m 0,0 km/h (0 Bft) 97,87 %
04.04.2019 00:54 6,4 C 5,6 C 5,0 C 88 % 998,6 hPa 0,0 l/m 0 min 0 min 0 W/m 6,4 km/h (2 Bft) 100,00 %
04.04.2019 00:56 6,3 C 5,6 C 5,0 C 88 % 998,7 hPa 0,0 l/m 0 min 0 min 0 W/m 6,4 km/h (2 Bft) 100,00 %
04.04.2019 00:58 6,3 C 5,6 C 5,0 C 88 % 998,8 hPa 0,0 l/m 0 min 0 min 0 W/m 3,2 km/h (1 Bft) 100,00 %
04.04.2019 01:00 6,3 C 5,6 C 5,0 C 88 % 998,8 hPa 0,0 l/m 0 min 0 min 0 W/m 9,7 km/h (2 Bft) 97,87 %
04.04.2019 01:02 6,3 C 5,6 C 5,0 C 88 % 998,6 hPa 0,0 l/m 0 min 0 min 0 W/m 0,0 km/h (0 Bft) 100,00 %
04.04.2019 01:04 6,3 C 5,6 C 5,0 C 88 % 998,6 hPa 0,0 l/m 0 min 0 min 0 W/m 0,0 km/h (0 Bft) 100,00 %
04.04.2019 01:06 6,3 C 5,6 C 5,0 C 88 % 998,5 hPa 0,0 l/m 0 min 0 min 0 W/m 0,0 km/h (0 Bft) 100,00 %
04.04.2019 01:08 6,3 C 5,6 C 5,0 C 88 % 998,5 hPa 0,0 l/m 0 min 0 min 0 W/m 0,0 km/h (0 Bft) 100,00 %
04.04.2019 01:10 6,3 C 5,6 C 5,0 C 88 % 998,5 hPa 0,0 l/m 0 min 0 min 0 W/m 0,0 km/h (0 Bft) 100,00 %
04.04.2019 01:12 6,3 C 5,6 C 5,0 C 88 % 998,5 hPa 0,0 l/m 0 min 0 min 0 W/m 0,0 km/h (0 Bft) 100,00 %
04.04.2019 01:14 6,2 C 5,6 C 5,0 C 88 % 998,5 hPa 0,0 l/m 0 min 0 min 0 W/m 0,0 km/h (0 Bft) 100,00 %
04.04.2019 01:16 6,2 C 5,6 C 5,0 C 88 % 998,4 hPa 0,0 l/m 0 min 0 min 0 W/m 6,4 km/h (2 Bft) 100,00 %
04.04.2019 01:18 6,2 C 5,6 C 5,0 C 88 % 998,4 hPa 0,0 l/m 0 min 0 min 0 W/m 3,2 km/h (1 Bft) 100,00 %
04.04.2019 01:20 6,2 C 5,6 C 4,4 C 88 % 998,3 hPa 0,0 l/m 0 min 0 min 0 W/m 6,4 km/h (2 Bft) 100,00 %
04.04.2019 01:22 6,2 C 5,6 C 4,4 C 88 % 998,3 hPa 0,0 l/m 0 min 0 min 0 W/m 3,2 km/h (1 Bft) 100,00 %
04.04.2019 01:24 6,2 C 5,6 C 5,0 C 88 % 998,2 hPa 0,0 l/m 0 min 0 min 0 W/m 0,0 km/h (0 Bft) 100,00 %
04.04.2019 01:26 6,2 C 5,6 C 4,4 C 88 % 998,2 hPa 0,0 l/m 0 min 0 min 0 W/m 0,0 km/h (0 Bft) 100,00 %
04.04.2019 01:28 6,2 C 5,0 C 4,4 C 88 % 998,2 hPa 0,0 l/m 0 min 0 min 0 W/m 0,0 km/h (0 Bft) 100,00 %
04.04.2019 01:30 6,2 C 5,0 C 4,4 C 88 % 998,1 hPa 0,0 l/m 0 min 0 min 0 W/m 0,0 km/h (0 Bft) 100,00 %
04.04.2019 01:32 6,2 C 5,0 C 4,4 C 88 % 998,1 hPa 0,0 l/m 0 min 0 min 0 W/m 0,0 km/h (0 Bft) 97,87 %
04.04.2019 01:34 6,1 C 5,0 C 4,4 C 88 % 998,1 hPa 0,0 l/m 0 min 0 min 0 W/m 0,0 km/h (0 Bft) 100,00 %
04.04.2019 01:36 6,1 C 5,0 C 4,4 C 88 % 998,0 hPa 0,0 l/m 0 min 0 min 0 W/m 0,0 km/h (0 Bft) 100,00 %
04.04.2019 01:38 6,1 C 5,0 C 4,4 C 88 % 998,1 hPa 0,0 l/m 0 min 0 min 0 W/m 0,0 km/h (0 Bft) 100,00 %
04.04.2019 01:40 6,1 C 5,0 C 4,4 C 88 % 998,0 hPa 0,0 l/m 0 min 0 min 0 W/m 0,0 km/h (0 Bft) 100,00 %
04.04.2019 01:42 6,1 C 5,0 C 4,4 C 88 % 998,0 hPa 0,0 l/m 0 min 0 min 0 W/m 0,0 km/h (0 Bft) 97,83 %
04.04.2019 01:44 6,1 C 5,0 C 4,4 C 88 % 998,0 hPa 0,0 l/m 0 min 0 min 0 W/m 0,0 km/h (0 Bft) 100,00 %
04.04.2019 01:46 6,0 C 5,0 C 4,4 C 88 % 998,0 hPa 0,0 l/m 0 min 0 min 0 W/m 0,0 km/h (0 Bft) 100,00 %
04.04.2019 01:48 6,0 C 5,0 C 4,4 C 88 % 997,9 hPa 0,0 l/m 0 min 0 min 0 W/m 0,0 km/h (0 Bft) 97,87 %
04.04.2019 01:50 6,0 C 5,0 C 4,4 C 88 % 997,7 hPa 0,0 l/m 0 min 0 min 0 W/m 0,0 km/h (0 Bft) 95,74 %
04.04.2019 01:52 6,0 C 5,0 C 4,4 C 88 % 997,7 hPa 0,0 l/m 0 min 0 min 0 W/m 0,0 km/h (0 Bft) 97,87 %
04.04.2019 01:54 5,9 C 5,0 C 4,4 C 88 % 997,8 hPa 0,0 l/m 0 min 0 min 0 W/m 0,0 km/h (0 Bft) 97,83 %
04.04.2019 01:56 5,9 C 5,0 C 4,4 C 88 % 997,8 hPa 0,0 l/m 0 min 0 min 0 W/m 0,0 km/h (0 Bft) 95,74 %
04.04.2019 01:58 5,9 C 5,0 C 4,4 C 88 % 997,8 hPa 0,0 l/m 0 min 0 min 0 W/m 0,0 km/h (0 Bft) 95,74 %
04.04.2019 02:00 5,9 C 5,0 C 4,4 C 88 % 997,8 hPa 0,0 l/m 0 min 0 min 0 W/m 0,0 km/h (0 Bft) 95,74 %
04.04.2019 02:02 5,9 C 5,0 C 4,4 C 88 % 997,8 hPa 0,0 l/m 0 min 0 min 0 W/m 0,0 km/h (0 Bft) 93,62 %
04.04.2019 02:04 5,9 C 5,0 C 4,4 C 89 % 997,8 hPa 0,0 l/m 0 min 0 min 0 W/m 0,0 km/h (0 Bft) 95,74 %
04.04.2019 02:06 5,9 C 5,0 C 4,4 C 89 % 997,8 hPa 0,0 l/m 0 min 0 min 0 W/m 0,0 km/h (0 Bft) 95,65 %
04.04.2019 02:08 5,9 C 5,0 C 4,4 C 89 % 997,7 hPa 0,0 l/m 0 min 0 min 0 W/m 0,0 km/h (0 Bft) 93,62 %
04.04.2019 02:10 5,8 C 5,0 C 4,4 C 89 % 997,7 hPa 0,0 l/m 0 min 0 min 0 W/m 0,0 km/h (0 Bft) 95,74 %
04.04.2019 02:12 5,8 C 5,0 C 3,9 C 89 % 997,6 hPa 0,0 l/m 0 min 0 min 0 W/m 0,0 km/h (0 Bft) 95,74 %
04.04.2019 02:14 5,8 C 4,4 C 3,9 C 89 % 997,7 hPa 0,0 l/m 0 min 0 min 0 W/m 0,0 km/h (0 Bft) 95,74 %
04.04.2019 02:16 5,8 C 5,0 C 3,9 C 89 % 997,7 hPa 0,0 l/m 0 min 0 min 0 W/m 0,0 km/h (0 Bft) 95,65 %
04.04.2019 02:18 5,8 C 5,0 C 3,9 C 89 % 997,8 hPa 0,0 l/m 0 min 0 min 0 W/m 0,0 km/h (0 Bft) 91,49 %
04.04.2019 02:20 5,8 C 5,0 C 3,9 C 89 % 997,9 hPa 0,0 l/m 0 min 0 min 0 W/m 0,0 km/h (0 Bft) 95,74 %
04.04.2019 02:22 5,8 C 5,0 C 3,9 C 89 % 998,0 hPa 0,0 l/m 0 min 0 min 0 W/m 0,0 km/h (0 Bft) 91,49 %
04.04.2019 02:24 5,7 C 5,0 C 3,9 C 89 % 998,0 hPa 0,0 l/m 0 min 0 min 0 W/m 0,0 km/h (0 Bft) 95,74 %
04.04.2019 02:26 5,7 C 5,0 C 4,4 C 89 % 997,8 hPa 0,0 l/m 0 min 0 min 0 W/m 6,4 km/h (2 Bft) 93,62 %
04.04.2019 02:28 5,7 C 5,0 C 4,4 C 89 % 997,9 hPa 0,0 l/m 0 min 0 min 0 W/m 6,4 km/h (2 Bft) 95,65 %
04.04.2019 02:30 5,7 C 5,0 C 4,4 C 89 % 997,7 hPa 0,0 l/m 0 min 0 min 0 W/m 3,2 km/h (1 Bft) 95,74 %
04.04.2019 02:32 5,7 C 5,0 C 3,9 C 89 % 997,6 hPa 0,0 l/m 0 min 0 min 0 W/m 0,0 km/h (0 Bft) 95,74 %
04.04.2019 02:34 5,7 C 4,4 C 3,9 C 89 % 997,5 hPa 0,0 l/m 0 min 0 min 0 W/m 0,0 km/h (0 Bft) 95,74 %
04.04.2019 02:36 5,7 C 4,4 C 3,9 C 89 % 997,4 hPa 0,0 l/m 0 min 0 min 0 W/m 0,0 km/h (0 Bft) 93,62 %
04.04.2019 02:38 5,7 C 4,4 C 3,9 C 89 % 997,4 hPa 0,0 l/m 0 min 0 min 0 W/m 0,0 km/h (0 Bft) 95,74 %
04.04.2019 02:40 5,6 C 5,0 C 3,9 C 89 % 997,5 hPa 0,0 l/m 0 min 0 min 0 W/m 0,0 km/h (0 Bft) 95,65 %
04.04.2019 02:42 5,7 C 5,0 C 3,9 C 89 % 997,7 hPa 0,0 l/m 0 min 0 min 0 W/m 0,0 km/h (0 Bft) 95,74 %
04.04.2019 02:44 5,6 C 5,0 C 3,9 C 89 % 997,6 hPa 0,0 l/m 0 min 0 min 0 W/m 0,0 km/h (0 Bft) 95,74 %
04.04.2019 02:46 5,6 C 5,0 C 4,4 C 89 % 997,6 hPa 0,0 l/m 0 min 0 min 0 W/m 0,0 km/h (0 Bft) 95,74 %
04.04.2019 02:48 5,6 C 5,0 C 3,9 C 89 % 997,5 hPa 0,0 l/m 0 min 0 min 0 W/m 0,0 km/h (0 Bft) 95,74 %
04.04.2019 02:50 5,6 C 5,0 C 3,9 C 89 % 997,6 hPa 0,0 l/m 0 min 0 min 0 W/m 0,0 km/h (0 Bft) 95,74 %
04.04.2019 02:52 5,6 C 5,0 C 3,9 C 90 % 997,6 hPa 0,0 l/m 0 min 0 min 0 W/m 0,0 km/h (0 Bft) 95,65 %
04.04.2019 02:54 5,6 C 5,0 C 3,9 C 90 % 997,7 hPa 0,0 l/m 0 min 0 min 0 W/m 0,0 km/h (0 Bft) 93,62 %
04.04.2019 02:56 5,6 C 5,0 C 3,9 C 90 % 997,7 hPa 0,0 l/m 0 min 0 min 0 W/m 0,0 km/h (0 Bft) 97,87 %
04.04.2019 02:58 5,6 C 5,0 C 3,9 C 90 % 997,7 hPa 0,0 l/m 0 min 0 min 0 W/m 0,0 km/h (0 Bft) 97,87 %
04.04.2019 03:00 5,6 C 5,0 C 4,4 C 90 % 997,6 hPa 0,0 l/m 0 min 0 min 0 W/m 0,0 km/h (0 Bft) 97,87 %
04.04.2019 03:02 5,6 C 5,0 C 4,4 C 90 % 997,7 hPa 0,0 l/m 0 min 0 min 0 W/m 0,0 km/h (0 Bft) 97,87 %
04.04.2019 03:04 5,5 C 5,0 C 4,4 C 90 % 997,7 hPa 0,0 l/m 0 min 0 min 0 W/m 3,2 km/h (1 Bft) 93,48 %
04.04.2019 03:06 5,5 C 5,0 C 4,4 C 90 % 997,7 hPa 0,0 l/m 0 min 0 min 0 W/m 0,0 km/h (0 Bft) 97,87 %
04.04.2019 03:08 5,5 C 5,0 C 4,4 C 90 % 997,8 hPa 0,0 l/m 0 min 0 min 0 W/m 3,2 km/h (1 Bft) 97,87 %
04.04.2019 03:10 5,5 C 5,0 C 4,4 C 90 % 997,8 hPa 0,0 l/m 0 min 0 min 0 W/m 3,2 km/h (1 Bft) 93,62 %
04.04.2019 03:12 5,5 C 5,0 C 3,9 C 90 % 997,7 hPa 0,0 l/m 0 min 0 min 0 W/m 0,0 km/h (0 Bft) 97,87 %
04.04.2019 03:14 5,5 C 5,0 C 3,9 C 90 % 997,7 hPa 0,0 l/m 0 min 0 min 0 W/m 0,0 km/h (0 Bft) 97,87 %
04.04.2019 03:16 5,4 C 4,4 C 3,9 C 90 % 997,7 hPa 0,0 l/m 0 min 0 min 0 W/m 0,0 km/h (0 Bft) 97,83 %
04.04.2019 03:18 5,4 C 4,4 C 3,9 C 90 % 997,7 hPa 0,0 l/m 0 min 0 min 0 W/m 0,0 km/h (0 Bft) 97,87 %
04.04.2019 03:20 5,4 C 5,0 C 3,9 C 90 % 997,8 hPa 0,0 l/m 0 min 0 min 0 W/m 0,0 km/h (0 Bft) 97,87 %
04.04.2019 03:22 5,4 C 5,0 C 3,9 C 90 % 997,8 hPa 0,0 l/m 0 min 0 min 0 W/m 0,0 km/h (0 Bft) 97,87 %
04.04.2019 03:24 5,4 C 5,0 C 3,9 C 90 % 997,7 hPa 0,0 l/m 0 min 0 min 0 W/m 0,0 km/h (0 Bft) 97,87 %
04.04.2019 03:26 5,4 C 5,0 C 3,9 C 90 % 997,6 hPa 0,0 l/m 0 min 0 min 0 W/m 0,0 km/h (0 Bft) 97,87 %
04.04.2019 03:28 5,4 C 5,0 C 3,9 C 90 % 997,6 hPa 0,0 l/m 0 min 0 min 0 W/m 0,0 km/h (0 Bft) 100,00 %
04.04.2019 03:30 5,4 C 5,0 C 3,9 C 90 % 997,5 hPa 0,0 l/m 0 min 0 min 0 W/m 0,0 km/h (0 Bft) 100,00 %
04.04.2019 03:32 5,4 C 5,0 C 3,9 C 90 % 997,5 hPa 0,0 l/m 0 min 0 min 0 W/m 0,0 km/h (0 Bft) 100,00 %
04.04.2019 03:34 5,4 C 5,0 C 3,9 C 91 % 997,4 hPa 0,0 l/m 0 min 0 min 0 W/m 0,0 km/h (0 Bft) 97,87 %
04.04.2019 03:36 5,4 C 5,0 C 3,9 C 91 % 997,5 hPa 0,0 l/m 0 min 0 min 0 W/m 0,0 km/h (0 Bft) 100,00 %
04.04.2019 03:38 5,4 C 5,0 C 3,9 C 91 % 997,5 hPa 0,0 l/m 0 min 0 min 0 W/m 0,0 km/h (0 Bft) 100,00 %
04.04.2019 03:40 5,4 C 5,0 C 3,9 C 91 % 997,6 hPa 0,0 l/m 0 min 0 min 0 W/m 0,0 km/h (0 Bft) 100,00 %
04.04.2019 03:42 5,4 C 4,4 C 3,9 C 91 % 997,5 hPa 0,0 l/m 0 min 0 min 0 W/m 0,0 km/h (0 Bft) 100,00 %
04.04.2019 03:44 5,4 C 4,4 C 3,9 C 91 % 997,4 hPa 0,0 l/m 0 min 0 min 0 W/m 0,0 km/h (0 Bft) 97,87 %
04.04.2019 03:46 5,4 C 5,0 C 3,9 C 91 % 997,4 hPa 0,0 l/m 0 min 0 min 0 W/m 0,0 km/h (0 Bft) 97,87 %
04.04.2019 03:48 5,4 C 4,4 C 3,9 C 91 % 997,4 hPa 0,0 l/m 0 min 0 min 0 W/m 0,0 km/h (0 Bft) 100,00 %
04.04.2019 03:50 5,4 C 4,4 C 3,9 C 91 % 997,3 hPa 0,0 l/m 0 min 0 min 0 W/m 0,0 km/h (0 Bft) 100,00 %
04.04.2019 03:52 5,4 C 4,4 C 3,9 C 91 % 997,2 hPa 0,0 l/m 0 min 0 min 0 W/m 3,2 km/h (1 Bft) 100,00 %
04.04.2019 03:54 5,4 C 4,4 C 3,9 C 91 % 997,4 hPa 0,0 l/m 0 min 0 min 0 W/m 0,0 km/h (0 Bft) 100,00 %
04.04.2019 03:56 5,3 C 4,4 C 3,9 C 91 % 997,4 hPa 0,0 l/m 0 min 0 min 0 W/m 0,0 km/h (0 Bft) 100,00 %
04.04.2019 03:58 5,3 C 4,4 C 3,9 C 91 % 997,5 hPa 0,0 l/m 0 min 0 min 0 W/m 0,0 km/h (0 Bft) 100,00 %
04.04.2019 04:00 5,3 C 4,4 C 3,9 C 91 % 997,4 hPa 0,0 l/m 0 min 0 min 0 W/m 0,0 km/h (0 Bft) 100,00 %
04.04.2019 04:02 5,3 C 4,4 C 3,9 C 91 % 997,4 hPa 0,0 l/m 0 min 0 min 0 W/m 0,0 km/h (0 Bft) 100,00 %
04.04.2019 04:04 5,3 C 4,4 C 3,9 C 91 % 997,4 hPa 0,0 l/m 0 min 0 min 0 W/m 0,0 km/h (0 Bft) 95,74 %
04.04.2019 04:06 5,3 C 4,4 C 3,9 C 91 % 997,3 hPa 0,0 l/m 0 min 0 min 0 W/m 0,0 km/h (0 Bft) 97,87 %
04.04.2019 04:08 5,3 C 4,4 C 3,9 C 91 % 997,2 hPa 0,0 l/m 0 min 0 min 0 W/m 0,0 km/h (0 Bft) 97,87 %
04.04.2019 04:10 5,3 C 4,4 C 3,9 C 91 % 997,2 hPa 0,0 l/m 0 min 0 min 0 W/m 0,0 km/h (0 Bft) 97,87 %
04.04.2019 04:12 5,3 C 4,4 C 3,9 C 91 % 997,2 hPa 0,0 l/m 0 min 0 min 0 W/m 0,0 km/h (0 Bft) 100,00 %
04.04.2019 04:14 5,3 C 4,4 C 3,9 C 92 % 997,1 hPa 0,0 l/m 0 min 0 min 0 W/m 0,0 km/h (0 Bft) 100,00 %
04.04.2019 04:16 5,2 C 4,4 C 3,9 C 92 % 997,1 hPa 0,0 l/m 0 min 0 min 0 W/m 0,0 km/h (0 Bft) 97,87 %
04.04.2019 04:18 5,2 C 4,4 C 3,9 C 91 % 997,1 hPa 0,0 l/m 0 min 0 min 0 W/m 0,0 km/h (0 Bft) 97,87 %
04.04.2019 04:20 5,2 C 4,4 C 3,9 C 91 % 997,1 hPa 0,0 l/m 0 min 0 min 0 W/m 0,0 km/h (0 Bft) 95,74 %
04.04.2019 04:22 5,2 C 4,4 C 3,9 C 91 % 997,1 hPa 0,0 l/m 0 min 0 min 0 W/m 0,0 km/h (0 Bft) 100,00 %
04.04.2019 04:24 5,2 C 4,4 C 3,9 C 91 % 997,0 hPa 0,0 l/m 0 min 0 min 0 W/m 0,0 km/h (0 Bft) 97,83 %
04.04.2019 04:26 5,2 C 4,4 C 3,3 C 91 % 997,0 hPa 0,0 l/m 0 min 0 min 0 W/m 0,0 km/h (0 Bft) 97,87 %
04.04.2019 04:28 5,2 C 3,9 C 3,3 C 91 % 996,8 hPa 0,0 l/m 0 min 0 min 0 W/m 0,0 km/h (0 Bft) 93,62 %
04.04.2019 04:30 5,2 C 3,9 C 3,3 C 92 % 996,9 hPa 0,0 l/m 0 min 0 min 0 W/m 0,0 km/h (0 Bft) 97,87 %
04.04.2019 04:32 5,2 C 3,3 C 2,8 C 91 % 996,9 hPa 0,0 l/m 0 min 0 min 0 W/m 0,0 km/h (0 Bft) 97,87 %
04.04.2019 04:34 5,1 C 3,3 C 2,8 C 91 % 996,8 hPa 0,0 l/m 0 min 0 min 0 W/m 0,0 km/h (0 Bft) 95,74 %
04.04.2019 04:36 5,1 C 3,3 C 2,8 C 91 % 996,7 hPa 0,0 l/m 0 min 0 min 0 W/m 0,0 km/h (0 Bft) 97,83 %
04.04.2019 04:38 5,1 C 3,3 C 2,8 C 91 % 996,7 hPa 0,0 l/m 0 min 0 min 0 W/m 0,0 km/h (0 Bft) 97,87 %
04.04.2019 04:40 5,1 C 3,3 C 2,8 C 91 % 996,6 hPa 0,0 l/m 0 min 0 min 0 W/m 0,0 km/h (0 Bft) 97,87 %
04.04.2019 04:42 5,0 C 3,3 C 2,2 C 91 % 996,7 hPa 0,0 l/m 0 min 0 min 0 W/m 0,0 km/h (0 Bft) 97,87 %
04.04.2019 04:44 4,9 C 3,3 C 2,2 C 91 % 996,7 hPa 0,0 l/m 0 min 0 min 0 W/m 0,0 km/h (0 Bft) 97,87 %
04.04.2019 04:46 4,9 C 3,3 C 2,2 C 91 % 996,7 hPa 0,0 l/m 0 min 0 min 0 W/m 0,0 km/h (0 Bft) 97,87 %
04.04.2019 04:48 4,9 C 3,3 C 2,2 C 91 % 996,6 hPa 0,0 l/m 0 min 0 min 0 W/m 0,0 km/h (0 Bft) 97,83 %
04.04.2019 04:50 4,9 C 3,3 C 2,2 C 91 % 996,7 hPa 0,0 l/m 0 min 0 min 0 W/m 0,0 km/h (0 Bft) 97,87 %
04.04.2019 04:52 4,8 C 3,3 C 2,2 C 91 % 996,7 hPa 0,0 l/m 0 min 0 min 0 W/m 0,0 km/h (0 Bft) 97,87 %
04.04.2019 04:54 4,8 C 2,8 C 2,2 C 91 % 996,6 hPa 0,0 l/m 0 min 0 min 0 W/m 0,0 km/h (0 Bft) 97,87 %
04.04.2019 04:56 4,8 C 2,8 C 2,2 C 91 % 996,6 hPa 0,0 l/m 0 min 0 min 0 W/m 0,0 km/h (0 Bft) 97,87 %
04.04.2019 04:58 4,8 C 2,8 C 2,2 C 91 % 996,7 hPa 0,0 l/m 0 min 0 min 0 W/m 0,0 km/h (0 Bft) 97,87 %
04.04.2019 05:00 4,7 C 2,8 C 2,2 C 91 % 996,7 hPa 0,0 l/m 0 min 0 min 0 W/m 0,0 km/h (0 Bft) 97,83 %
04.04.2019 05:02 4,7 C 2,8 C 2,2 C 91 % 996,7 hPa 0,0 l/m 0 min 0 min 0 W/m 0,0 km/h (0 Bft) 97,87 %
04.04.2019 05:04 4,7 C 2,8 C 2,2 C 91 % 996,7 hPa 0,0 l/m 0 min 0 min 0 W/m 0,0 km/h (0 Bft) 100,00 %
04.04.2019 05:05 4,6 C 2,8 C 2,2 C 91 % 996,7 hPa 0,0 l/m 0 min 0 min 0 W/m 0,0 km/h (0 Bft) 100,00 %
04.04.2019 05:10 4,5 C 2,8 C 2,2 C 91 % 996,7 hPa 0,0 l/m 0 min 0 min 0 W/m 0,0 km/h (0 Bft) 100,00 %
04.04.2019 05:12 4,5 C 2,8 C 2,2 C 91 % 996,8 hPa 0,0 l/m 0 min 0 min 0 W/m 0,0 km/h (0 Bft) 100,00 %
04.04.2019 05:14 4,4 C 2,8 C 2,2 C 91 % 996,8 hPa 0,0 l/m 0 min 0 min 0 W/m 0,0 km/h (0 Bft) 100,00 %
04.04.2019 05:16 4,4 C 2,8 C 2,2 C 91 % 996,8 hPa 0,0 l/m 0 min 0 min 0 W/m 0,0 km/h (0 Bft) 100,00 %
04.04.2019 05:18 4,4 C 2,8 C 2,2 C 91 % 996,8 hPa 0,0 l/m 0 min 0 min 0 W/m 0,0 km/h (0 Bft) 95,83 %
04.04.2019 05:20 4,4 C 2,8 C 2,2 C 91 % 996,8 hPa 0,0 l/m 0 min 0 min 0 W/m 0,0 km/h (0 Bft) 100,00 %
04.04.2019 05:22 4,3 C 2,8 C 2,2 C 91 % 996,8 hPa 0,0 l/m 0 min 0 min 0 W/m 0,0 km/h (0 Bft) 100,00 %
04.04.2019 05:24 4,3 C 2,8 C 2,2 C 91 % 996,8 hPa 0,0 l/m 0 min 0 min 0 W/m 0,0 km/h (0 Bft) 100,00 %
04.04.2019 05:26 4,3 C 2,8 C 2,2 C 91 % 996,7 hPa 0,0 l/m 0 min 0 min 0 W/m 0,0 km/h (0 Bft) 100,00 %
04.04.2019 05:28 4,2 C 2,8 C 2,2 C 91 % 996,8 hPa 0,0 l/m 0 min 0 min 0 W/m 0,0 km/h (0 Bft) 95,92 %
04.04.2019 05:30 4,2 C 2,8 C 2,2 C 91 % 996,7 hPa 0,0 l/m 0 min 0 min 0 W/m 0,0 km/h (0 Bft) 97,92 %
04.04.2019 05:32 4,2 C 2,8 C 2,2 C 91 % 996,7 hPa 0,0 l/m 0 min 0 min 0 W/m 0,0 km/h (0 Bft) 97,87 %
04.04.2019 05:34 4,2 C 2,8 C 2,2 C 91 % 996,8 hPa 0,0 l/m 0 min 0 min 0 W/m 0,0 km/h (0 Bft) 97,87 %
04.04.2019 05:36 4,1 C 2,8 C 2,2 C 91 % 996,9 hPa 0,0 l/m 0 min 0 min 0 W/m 0,0 km/h (0 Bft) 95,35 %
04.04.2019 05:38 4,1 C 2,8 C 2,2 C 91 % 996,9 hPa 0,0 l/m 0 min 0 min 0 W/m 0,0 km/h (0 Bft) 97,30 %
04.04.2019 05:40 4,1 C 2,8 C 2,2 C 91 % 997,0 hPa 0,0 l/m 0 min 0 min 0 W/m 0,0 km/h (0 Bft) 97,83 %
04.04.2019 05:42 4,1 C 2,8 C 2,2 C 91 % 996,9 hPa 0,0 l/m 0 min 0 min 0 W/m 0,0 km/h (0 Bft) 93,88 %
04.04.2019 05:44 4,0 C 2,8 C 2,2 C 91 % 996,7 hPa 0,0 l/m 0 min 0 min 0 W/m 0,0 km/h (0 Bft) 93,88 %
04.04.2019 05:46 4,0 C 2,8 C 2,2 C 91 % 996,6 hPa 0,0 l/m 0 min 0 min 0 W/m 0,0 km/h (0 Bft) 95,83 %
04.04.2019 05:48 4,0 C 2,8 C 2,2 C 91 % 996,9 hPa 0,0 l/m 0 min 0 min 0 W/m 0,0 km/h (0 Bft) 93,62 %
04.04.2019 05:50 3,9 C 2,8 C 2,2 C 91 % 997,0 hPa 0,0 l/m 0 min 0 min 0 W/m 0,0 km/h (0 Bft) 95,74 %
04.04.2019 05:52 3,9 C 3,3 C 2,2 C 91 % 997,0 hPa 0,0 l/m 0 min 0 min 0 W/m 0,0 km/h (0 Bft) 90,48 %
04.04.2019 05:54 3,9 C 3,3 C 2,8 C 91 % 996,9 hPa 0,0 l/m 0 min 0 min 0 W/m 0,0 km/h (0 Bft) 95,92 %
04.04.2019 05:56 3,9 C 3,3 C 2,8 C 91 % 997,0 hPa 0,0 l/m 0 min 0 min 0 W/m 0,0 km/h (0 Bft) 93,88 %
04.04.2019 05:58 3,9 C 3,3 C 2,8 C 91 % 997,0 hPa 0,0 l/m 0 min 0 min 0 W/m 0,0 km/h (0 Bft) 95,74 %
04.04.2019 06:00 3,9 C 3,3 C 2,8 C 91 % 997,0 hPa 0,0 l/m 0 min 0 min 0 W/m 0,0 km/h (0 Bft) 95,74 %
04.04.2019 06:02 3,9 C 3,3 C 2,8 C 91 % 997,0 hPa 0,0 l/m 0 min 0 min 0 W/m 0,0 km/h (0 Bft) 95,45 %
04.04.2019 06:04 3,9 C 3,9 C 2,8 C 92 % 997,0 hPa 0,0 l/m 0 min 0 min 0 W/m 0,0 km/h (0 Bft) 95,65 %
04.04.2019 06:08 3,9 C 3,3 C 2,8 C 92 % 996,8 hPa 0,0 l/m 0 min 0 min 0 W/m 0,0 km/h (0 Bft) 93,81 %
04.04.2019 06:10 3,9 C 3,3 C 2,8 C 92 % 996,7 hPa 0,0 l/m 0 min 0 min 0 W/m 0,0 km/h (0 Bft) 95,74 %
04.04.2019 06:12 3,9 C 3,3 C 2,8 C 92 % 996,7 hPa 0,0 l/m 0 min 0 min 0 W/m 0,0 km/h (0 Bft) 95,74 %
04.04.2019 06:14 3,9 C 3,3 C 2,8 C 92 % 996,7 hPa 0,0 l/m 0 min 0 min 0 W/m 0,0 km/h (0 Bft) 95,74 %
04.04.2019 06:16 3,9 C 3,3 C 2,8 C 92 % 996,8 hPa 0,0 l/m 0 min 0 min 0 W/m 0,0 km/h (0 Bft) 95,74 %
04.04.2019 06:18 3,9 C 3,3 C 2,8 C 92 % 996,7 hPa 0,0 l/m 0 min 0 min 0 W/m 0,0 km/h (0 Bft) 97,62 %
04.04.2019 06:20 3,9 C 2,8 C 2,8 C 92 % 996,7 hPa 0,0 l/m 0 min 0 min 0 W/m 0,0 km/h (0 Bft) 97,96 %
04.04.2019 06:22 3,9 C 3,3 C 2,8 C 92 % 996,7 hPa 0,0 l/m 0 min 0 min 0 W/m 0,0 km/h (0 Bft) 97,96 %
04.04.2019 06:24 3,9 C 3,3 C 2,8 C 92 % 996,8 hPa 0,0 l/m 0 min 0 min 0 W/m 0,0 km/h (0 Bft) 93,62 %
04.04.2019 06:26 3,9 C 3,3 C 2,8 C 92 % 996,8 hPa 0,0 l/m 0 min 0 min 0 W/m 0,0 km/h (0 Bft) 93,62 %
04.04.2019 06:28 3,9 C 3,3 C 2,8 C 92 % 996,8 hPa 0,0 l/m 0 min 0 min 0 W/m 0,0 km/h (0 Bft) 95,74 %
04.04.2019 06:30 3,9 C 3,3 C 2,8 C 92 % 996,7 hPa 0,0 l/m 0 min 0 min 0 W/m 0,0 km/h (0 Bft) 97,62 %
04.04.2019 06:32 3,9 C 3,3 C 2,8 C 92 % 996,7 hPa 0,0 l/m 0 min 0 min 0 W/m 0,0 km/h (0 Bft) 98,00 %
04.04.2019 06:34 3,9 C 3,3 C 2,8 C 92 % 996,6 hPa 0,0 l/m 0 min 0 min 0 W/m 0,0 km/h (0 Bft) 95,74 %
04.04.2019 06:36 3,9 C 2,8 C 2,8 C 92 % 996,6 hPa 0,0 l/m 0 min 0 min 0 W/m 0,0 km/h (0 Bft) 96,67 %
04.04.2019 06:38 3,9 C 2,8 C 2,8 C 92 % 996,6 hPa 0,0 l/m 0 min 0 min 0 W/m 0,0 km/h (0 Bft) 94,59 %
04.04.2019 06:40 3,9 C 2,8 C 2,2 C 92 % 996,6 hPa 0,0 l/m 0 min 0 min 0 W/m 0,0 km/h (0 Bft) 95,83 %
04.04.2019 06:42 3,9 C 2,8 C 2,2 C 92 % 996,5 hPa 0,0 l/m 0 min 0 min 0 W/m 0,0 km/h (0 Bft) 95,65 %
04.04.2019 06:44 3,9 C 2,8 C 2,2 C 92 % 996,6 hPa 0,0 l/m 0 min 0 min 0 W/m 0,0 km/h (0 Bft) 95,24 %
04.04.2019 06:46 3,9 C 3,3 C 2,2 C 92 % 996,6 hPa 0,0 l/m 0 min 0 min 0 W/m 0,0 km/h (0 Bft) 97,96 %
04.04.2019 06:48 3,9 C 3,3 C 2,8 C 93 % 996,6 hPa 0,0 l/m 0 min 0 min 0 W/m 0,0 km/h (0 Bft) 97,92 %
04.04.2019 06:50 3,9 C 3,3 C 2,8 C 93 % 996,6 hPa 0,0 l/m 0 min 0 min 0 W/m 0,0 km/h (0 Bft) 95,92 %
04.04.2019 06:52 3,9 C 3,3 C 2,8 C 93 % 996,6 hPa 0,0 l/m 0 min 0 min 0 W/m 0,0 km/h (0 Bft) 95,74 %
04.04.2019 06:54 3,9 C 3,3 C 2,8 C 93 % 996,6 hPa 0,0 l/m 0 min 0 min 0 W/m 0,0 km/h (0 Bft) 97,83 %
04.04.2019 06:56 3,9 C 3,3 C 2,8 C 93 % 996,6 hPa 0,0 l/m 0 min 0 min 0 W/m 0,0 km/h (0 Bft) 97,67 %
04.04.2019 06:58 3,9 C 3,3 C 2,8 C 93 % 996,6 hPa 0,0 l/m 0 min 0 min 0 W/m 0,0 km/h (0 Bft) 96,00 %
04.04.2019 07:00 3,9 C 3,3 C 2,8 C 93 % 996,6 hPa 0,0 l/m 0 min 0 min 0 W/m 0,0 km/h (0 Bft) 97,83 %
04.04.2019 07:02 3,9 C 2,8 C 2,2 C 93 % 996,5 hPa 0,0 l/m 0 min 0 min 0 W/m 0,0 km/h (0 Bft) 95,92 %
04.04.2019 07:04 3,9 C 2,8 C 2,2 C 93 % 996,6 hPa 0,0 l/m 0 min 0 min 0 W/m 0,0 km/h (0 Bft) 97,87 %
04.04.2019 07:06 3,9 C 3,3 C 2,2 C 93 % 996,5 hPa 0,0 l/m 0 min 0 min 0 W/m 0,0 km/h (0 Bft) 97,83 %
04.04.2019 07:08 3,9 C 2,8 C 2,2 C 93 % 996,5 hPa 0,0 l/m 0 min 0 min 0 W/m 0,0 km/h (0 Bft) 97,62 %
04.04.2019 07:10 3,9 C 3,3 C 2,2 C 93 % 996,5 hPa 0,0 l/m 0 min 0 min 0 W/m 0,0 km/h (0 Bft) 97,96 %
04.04.2019 07:12 3,9 C 3,3 C 2,8 C 93 % 996,5 hPa 0,0 l/m 0 min 0 min 0 W/m 0,0 km/h (0 Bft) 95,83 %
04.04.2019 07:14 3,9 C 3,3 C 2,8 C 93 % 996,6 hPa 0,0 l/m 0 min 0 min 0 W/m 0,0 km/h (0 Bft) 97,96 %
04.04.2019 07:16 3,9 C 3,3 C 2,8 C 93 % 996,6 hPa 0,0 l/m 0 min 0 min 0 W/m 0,0 km/h (0 Bft) 97,87 %
04.04.2019 07:18 3,9 C 3,3 C 2,8 C 93 % 996,6 hPa 0,0 l/m 0 min 0 min 1 W/m 0,0 km/h (0 Bft) 100,00 %
04.04.2019 07:20 3,9 C 3,3 C 2,8 C 93 % 996,6 hPa 0,0 l/m 0 min 0 min 5 W/m 0,0 km/h (0 Bft) 100,00 %
04.04.2019 07:23 3,9 C 3,3 C 2,8 C 93 % 996,7 hPa 0,0 l/m 0 min 0 min 5 W/m 0,0 km/h (0 Bft) 100,00 %
04.04.2019 07:24 3,9 C 3,3 C 2,8 C 93 % 996,7 hPa 0,0 l/m 0 min 0 min 5 W/m 0,0 km/h (0 Bft) 100,00 %
04.04.2019 07:26 3,9 C 3,3 C 2,8 C 93 % 996,8 hPa 0,0 l/m 0 min 0 min 5 W/m 0,0 km/h (0 Bft) 100,00 %
04.04.2019 07:28 3,9 C 3,3 C 2,8 C 93 % 996,7 hPa 0,0 l/m 0 min 0 min 5 W/m 0,0 km/h (0 Bft) 100,00 %
04.04.2019 07:30 3,9 C 3,3 C 2,8 C 93 % 996,8 hPa 0,0 l/m 0 min 0 min 5 W/m 0,0 km/h (0 Bft) 100,00 %
04.04.2019 07:32 3,9 C 3,3 C 2,8 C 93 % 996,8 hPa 0,0 l/m 0 min 0 min 7 W/m 0,0 km/h (0 Bft) 100,00 %
04.04.2019 07:34 3,9 C 3,9 C 2,8 C 94 % 996,9 hPa 0,0 l/m 0 min 0 min 8 W/m 0,0 km/h (0 Bft) 100,00 %
04.04.2019 07:36 3,9 C 3,9 C 2,8 C 93 % 997,0 hPa 0,0 l/m 0 min 0 min 9 W/m 0,0 km/h (0 Bft) 100,00 %
04.04.2019 07:38 4,0 C 3,9 C 2,8 C 94 % 997,0 hPa 0,0 l/m 0 min 0 min 9 W/m 0,0 km/h (0 Bft) 96,96 %
04.04.2019 07:40 4,1 C 3,9 C 3,3 C 94 % 997,0 hPa 0,0 l/m 0 min 0 min 10 W/m 0,0 km/h (0 Bft) 100,00 %
04.04.2019 07:42 4,1 C 3,9 C 3,3 C 94 % 997,0 hPa 0,0 l/m 0 min 0 min 11 W/m 0,0 km/h (0 Bft) 100,00 %
04.04.2019 07:44 4,1 C 3,9 C 3,3 C 94 % 997,0 hPa 0,0 l/m 0 min 0 min 13 W/m 0,0 km/h (0 Bft) 100,00 %
04.04.2019 07:46 4,1 C 3,9 C 3,3 C 94 % 997,1 hPa 0,0 l/m 0 min 0 min 15 W/m 0,0 km/h (0 Bft) 100,00 %
04.04.2019 07:48 4,2 C 3,9 C 3,3 C 94 % 997,0 hPa 0,0 l/m 0 min 0 min 16 W/m 0,0 km/h (0 Bft) 100,00 %
04.04.2019 07:50 4,2 C 3,9 C 3,3 C 94 % 996,9 hPa 0,0 l/m 0 min 0 min 16 W/m 0,0 km/h (0 Bft) 100,00 %
04.04.2019 07:52 4,2 C 3,9 C 3,3 C 94 % 996,7 hPa 0,0 l/m 0 min 0 min 14 W/m 0,0 km/h (0 Bft) 100,00 %
04.04.2019 07:54 4,2 C 3,9 C 3,3 C 94 % 996,7 hPa 0,0 l/m 0 min 0 min 17 W/m 0,0 km/h (0 Bft) 100,00 %
04.04.2019 07:56 4,2 C 3,9 C 3,3 C 94 % 996,7 hPa 0,0 l/m 0 min 0 min 22 W/m 0,0 km/h (0 Bft) 100,00 %
04.04.2019 07:58 4,2 C 3,9 C 3,3 C 94 % 996,7 hPa 0,0 l/m 0 min 0 min 26 W/m 0,0 km/h (0 Bft) 100,00 %
04.04.2019 08:00 4,2 C 3,9 C 3,3 C 94 % 996,8 hPa 0,0 l/m 0 min 0 min 30 W/m 0,0 km/h (0 Bft) 100,00 %
04.04.2019 08:02 4,2 C 3,9 C 3,3 C 94 % 996,9 hPa 0,0 l/m 0 min 0 min 36 W/m 0,0 km/h (0 Bft) 97,87 %
04.04.2019 08:04 4,2 C 3,9 C 3,3 C 94 % 997,0 hPa 0,0 l/m 0 min 0 min 42 W/m 0,0 km/h (0 Bft) 93,62 %
04.04.2019 08:06 4,2 C 4,4 C 3,9 C 94 % 996,8 hPa 0,0 l/m 0 min 0 min 45 W/m 0,0 km/h (0 Bft) 97,92 %
04.04.2019 08:08 4,2 C 4,4 C 3,9 C 94 % 996,9 hPa 0,0 l/m 0 min 0 min 48 W/m 0,0 km/h (0 Bft) 97,30 %
04.04.2019 08:10 4,2 C 4,4 C 3,9 C 94 % 996,9 hPa 0,0 l/m 0 min 0 min 49 W/m 0,0 km/h (0 Bft) 97,92 %
04.04.2019 08:12 4,2 C 4,4 C 3,9 C 94 % 996,9 hPa 0,0 l/m 0 min 0 min 46 W/m 0,0 km/h (0 Bft) 97,92 %
04.04.2019 08:14 4,2 C 4,4 C 3,9 C 94 % 996,9 hPa 0,0 l/m 0 min 0 min 39 W/m 0,0 km/h (0 Bft) 96,00 %
04.04.2019 08:16 4,2 C 4,4 C 3,9 C 94 % 997,0 hPa 0,0 l/m 0 min 0 min 34 W/m 0,0 km/h (0 Bft) 97,96 %
04.04.2019 08:18 4,3 C 4,4 C 3,9 C 94 % 997,0 hPa 0,0 l/m 0 min 0 min 34 W/m 0,0 km/h (0 Bft) 95,92 %
04.04.2019 08:20 4,3 C 4,4 C 3,9 C 94 % 997,1 hPa 0,0 l/m 0 min 0 min 36 W/m 0,0 km/h (0 Bft) 91,89 %
04.04.2019 08:22 4,3 C 4,4 C 3,9 C 94 % 997,1 hPa 0,0 l/m 0 min 0 min 41 W/m 0,0 km/h (0 Bft) 97,92 %
04.04.2019 08:24 4,3 C 4,4 C 3,9 C 94 % 997,1 hPa 0,0 l/m 0 min 0 min 43 W/m 0,0 km/h (0 Bft) 95,92 %
04.04.2019 08:26 4,3 C 4,4 C 3,9 C 95 % 997,2 hPa 0,0 l/m 0 min 0 min 42 W/m 0,0 km/h (0 Bft) 97,96 %
04.04.2019 08:28 4,4 C 4,4 C 4,4 C 94 % 997,2 hPa 0,0 l/m 0 min 0 min 42 W/m 0,0 km/h (0 Bft) 95,92 %
04.04.2019 08:30 4,4 C 4,4 C 4,4 C 94 % 997,1 hPa 0,0 l/m 0 min 0 min 40 W/m 0,0 km/h (0 Bft) 97,96 %
04.04.2019 08:32 4,4 C 4,4 C 4,4 C 95 % 997,1 hPa 0,0 l/m 0 min 0 min 37 W/m 0,0 km/h (0 Bft) 95,83 %
04.04.2019 08:34 4,4 C 5,0 C 4,4 C 95 % 997,2 hPa 0,0 l/m 0 min 0 min 38 W/m 0,0 km/h (0 Bft) 94,74 %
04.04.2019 08:36 4,4 C 5,0 C 4,4 C 95 % 997,3 hPa 0,0 l/m 0 min 0 min 39 W/m 0,0 km/h (0 Bft) 94,92 %
04.04.2019 08:38 4,5 C 5,0 C 4,4 C 95 % 997,3 hPa 0,0 l/m 0 min 0 min 41 W/m 0,0 km/h (0 Bft) 100,00 %
04.04.2019 08:40 4,5 C 5,0 C 4,4 C 95 % 997,3 hPa 0,0 l/m 0 min 0 min 47 W/m 0,0 km/h (0 Bft) 97,87 %
04.04.2019 08:42 4,6 C 5,0 C 4,4 C 95 % 997,4 hPa 0,0 l/m 0 min 0 min 51 W/m 0,0 km/h (0 Bft) 96,00 %
04.04.2019 08:44 4,6 C 5,0 C 4,4 C 95 % 997,4 hPa 0,0 l/m 0 min 0 min 53 W/m 0,0 km/h (0 Bft) 95,24 %
04.04.2019 08:46 4,6 C 5,0 C 4,4 C 95 % 997,4 hPa 0,0 l/m 0 min 0 min 53 W/m 0,0 km/h (0 Bft) 98,15 %
04.04.2019 08:48 4,6 C 5,0 C 4,4 C 95 % 997,4 hPa 0,0 l/m 0 min 0 min 56 W/m 0,0 km/h (0 Bft) 96,00 %
04.04.2019 08:50 4,6 C 5,6 C 5,0 C 95 % 997,4 hPa 0,0 l/m 0 min 0 min 64 W/m 0,0 km/h (0 Bft) 97,37 %
04.04.2019 08:52 4,7 C 5,6 C 5,0 C 95 % 997,4 hPa 0,0 l/m 0 min 0 min 72 W/m 0,0 km/h (0 Bft) 98,00 %
04.04.2019 08:54 4,7 C 5,6 C 5,0 C 95 % 997,4 hPa 0,0 l/m 0 min 0 min 78 W/m 0,0 km/h (0 Bft) 97,87 %
04.04.2019 08:56 4,7 C 5,6 C 5,0 C 95 % 997,3 hPa 0,0 l/m 0 min 0 min 77 W/m 0,0 km/h (0 Bft) 97,56 %
04.04.2019 08:58 4,8 C 5,6 C 5,0 C 95 % 997,4 hPa 0,0 l/m 0 min 0 min 72 W/m 0,0 km/h (0 Bft) 98,04 %
04.04.2019 09:00 4,8 C 5,6 C 5,0 C 95 % 997,4 hPa 0,0 l/m 0 min 0 min 71 W/m 0,0 km/h (0 Bft) 100,00 %
04.04.2019 09:02 4,9 C 5,6 C 5,0 C 95 % 997,3 hPa 0,0 l/m 0 min 0 min 81 W/m 0,0 km/h (0 Bft) 98,00 %
04.04.2019 09:04 4,9 C 6,1 C 5,6 C 95 % 997,4 hPa 0,0 l/m 0 min 0 min 105 W/m 0,0 km/h (0 Bft) 95,74 %
04.04.2019 09:06 4,9 C 6,1 C 5,6 C 95 % 997,5 hPa 0,0 l/m 0 min 0 min 125 W/m 0,0 km/h (0 Bft) 96,00 %
04.04.2019 09:08 5,0 C 6,1 C 5,6 C 95 % 997,4 hPa 0,0 l/m 0 min 0 min 114 W/m 0,0 km/h (0 Bft) 100,00 %
04.04.2019 09:10 5,1 C 6,1 C 5,6 C 95 % 997,3 hPa 0,0 l/m 0 min 0 min 97 W/m 0,0 km/h (0 Bft) 94,74 %
04.04.2019 09:12 5,1 C 6,1 C 5,6 C 95 % 997,3 hPa 0,0 l/m 0 min 0 min 88 W/m 0,0 km/h (0 Bft) 95,92 %
04.04.2019 09:14 5,1 C 6,1 C 5,6 C 96 % 997,3 hPa 0,0 l/m 0 min 0 min 91 W/m 0,0 km/h (0 Bft) 95,92 %
04.04.2019 09:16 5,2 C 6,1 C 5,6 C 95 % 997,4 hPa 0,0 l/m 0 min 0 min 107 W/m 0,0 km/h (0 Bft) 93,88 %
04.04.2019 09:18 5,2 C 6,1 C 6,1 C 96 % 997,4 hPa 0,0 l/m 0 min 0 min 130 W/m 0,0 km/h (0 Bft) 95,92 %
04.04.2019 09:20 5,3 C 6,1 C 5,6 C 96 % 997,4 hPa 0,0 l/m 0 min 0 min 134 W/m 0,0 km/h (0 Bft) 94,59 %
04.04.2019 09:22 5,3 C 6,1 C 6,1 C 96 % 997,3 hPa 0,0 l/m 0 min 0 min 122 W/m 0,0 km/h (0 Bft) 95,83 %
04.04.2019 09:24 5,4 C 6,1 C 6,1 C 96 % 997,3 hPa 0,0 l/m 0 min 0 min 121 W/m 0,0 km/h (0 Bft) 95,92 %
04.04.2019 09:26 5,4 C 6,7 C 6,1 C 96 % 997,2 hPa 0,0 l/m 0 min 0 min 113 W/m 0,0 km/h (0 Bft) 95,74 %
04.04.2019 09:28 5,4 C 6,1 C 6,1 C 96 % 997,2 hPa 0,0 l/m 0 min 0 min 108 W/m 0,0 km/h (0 Bft) 95,92 %
04.04.2019 09:30 5,5 C 6,7 C 6,1 C 96 % 997,3 hPa 0,0 l/m 0 min 0 min 102 W/m 0,0 km/h (0 Bft) 94,44 %
04.04.2019 09:32 5,5 C 6,7 C 6,1 C 96 % 997,3 hPa 0,0 l/m 0 min 0 min 99 W/m 0,0 km/h (0 Bft) 97,37 %
04.04.2019 09:34 5,6 C 6,7 C 6,1 C 96 % 997,4 hPa 0,0 l/m 0 min 0 min 95 W/m 0,0 km/h (0 Bft) 95,35 %
04.04.2019 09:36 5,6 C 6,7 C 6,1 C 96 % 997,4 hPa 0,0 l/m 0 min 0 min 91 W/m 0,0 km/h (0 Bft) 95,24 %
04.04.2019 09:38 5,6 C 6,7 C 6,1 C 96 % 997,3 hPa 0,0 l/m 0 min 0 min 84 W/m 0,0 km/h (0 Bft) 94,29 %
04.04.2019 09:40 5,7 C 6,7 C 6,1 C 96 % 997,4 hPa 0,0 l/m 0 min 0 min 83 W/m 0,0 km/h (0 Bft) 95,92 %
04.04.2019 09:42 5,7 C 6,7 C 6,1 C 96 % 997,4 hPa 0,0 l/m 0 min 0 min 82 W/m 0,0 km/h (0 Bft) 95,83 %
04.04.2019 09:44 5,7 C 6,7 C 6,1 C 96 % 997,5 hPa 0,0 l/m 0 min 0 min 80 W/m 3,2 km/h (1 Bft) 95,92 %
04.04.2019 09:46 5,8 C 6,1 C 6,1 C 96 % 997,5 hPa 0,0 l/m 0 min 0 min 81 W/m 0,0 km/h (0 Bft) 94,59 %
04.04.2019 09:48 5,8 C 6,7 C 6,1 C 96 % 997,5 hPa 0,0 l/m 0 min 0 min 85 W/m 3,2 km/h (1 Bft) 95,92 %
04.04.2019 09:50 5,8 C 6,7 C 6,1 C 96 % 997,5 hPa 0,0 l/m 0 min 0 min 92 W/m 3,2 km/h (1 Bft) 94,55 %
04.04.2019 09:52 5,9 C 6,7 C 6,1 C 96 % 997,5 hPa 0,0 l/m 0 min 0 min 98 W/m 0,0 km/h (0 Bft) 98,00 %
04.04.2019 09:54 5,9 C 6,7 C 6,1 C 96 % 997,6 hPa 0,0 l/m 0 min 0 min 98 W/m 3,2 km/h (1 Bft) 94,74 %
04.04.2019 09:56 5,9 C 6,7 C 6,1 C 96 % 997,6 hPa 0,0 l/m 0 min 0 min 92 W/m 0,0 km/h (0 Bft) 95,92 %
04.04.2019 09:58 5,9 C 6,7 C 6,1 C 96 % 997,6 hPa 0,0 l/m 0 min 0 min 96 W/m 3,2 km/h (1 Bft) 98,00 %
04.04.2019 10:00 6,0 C 6,7 C 6,1 C 96 % 997,6 hPa 0,0 l/m 0 min 0 min 119 W/m 0,0 km/h (0 Bft) 100,00 %
04.04.2019 10:02 6,0 C 7,2 C 6,7 C 96 % 997,6 hPa 0,0 l/m 0 min 0 min 148 W/m 0,0 km/h (0 Bft) 100,00 %
04.04.2019 10:04 6,1 C 7,2 C 6,7 C 96 % 997,7 hPa 0,0 l/m 0 min 0 min 170 W/m 0,0 km/h (0 Bft) 100,00 %
04.04.2019 10:06 6,1 C 7,2 C 7,2 C 96 % 997,8 hPa 0,0 l/m 0 min 0 min 169 W/m 3,2 km/h (1 Bft) 100,00 %
04.04.2019 10:08 6,1 C 7,2 C 6,7 C 96 % 997,8 hPa 0,0 l/m 0 min 0 min 146 W/m 3,2 km/h (1 Bft) 97,96 %
04.04.2019 10:10 6,2 C 7,2 C 6,7 C 96 % 997,8 hPa 0,0 l/m 0 min 0 min 129 W/m 0,0 km/h (0 Bft) 100,00 %
04.04.2019 10:12 6,2 C 7,2 C 6,7 C 96 % 997,8 hPa 0,0 l/m 0 min 0 min 131 W/m 0,0 km/h (0 Bft) 100,00 %
04.04.2019 10:14 6,2 C 7,2 C 7,2 C 96 % 997,7 hPa 0,0 l/m 0 min 0 min 132 W/m 3,2 km/h (1 Bft) 100,00 %
04.04.2019 10:16 6,2 C 7,2 C 7,2 C 96 % 997,6 hPa 0,0 l/m 0 min 0 min 135 W/m 3,2 km/h (1 Bft) 100,00 %
04.04.2019 10:18 6,3 C 7,2 C 7,2 C 96 % 997,6 hPa 0,0 l/m 0 min 0 min 137 W/m 0,0 km/h (0 Bft) 100,00 %
04.04.2019 10:20 6,3 C 7,2 C 7,2 C 96 % 997,6 hPa 0,0 l/m 0 min 0 min 145 W/m 0,0 km/h (0 Bft) 100,00 %
04.04.2019 10:22 6,4 C 7,8 C 7,2 C 96 % 997,6 hPa 0,0 l/m 0 min 0 min 150 W/m 0,0 km/h (0 Bft) 100,00 %
04.04.2019 10:24 6,4 C 7,8 C 7,2 C 96 % 997,7 hPa 0,0 l/m 0 min 0 min 159 W/m 0,0 km/h (0 Bft) 100,00 %
04.04.2019 10:26 6,4 C 7,8 C 7,2 C 96 % 997,8 hPa 0,0 l/m 0 min 0 min 165 W/m 0,0 km/h (0 Bft) 100,00 %
04.04.2019 10:28 6,4 C 7,8 C 7,2 C 96 % 997,7 hPa 0,0 l/m 0 min 0 min 166 W/m 3,2 km/h (1 Bft) 100,00 %
04.04.2019 10:30 6,4 C 8,3 C 7,8 C 96 % 997,7 hPa 0,0 l/m 0 min 0 min 174 W/m 3,2 km/h (1 Bft) 94,74 %
04.04.2019 10:32 6,5 C 7,8 C 7,8 C 96 % 997,7 hPa 0,0 l/m 0 min 0 min 178 W/m 3,2 km/h (1 Bft) 97,96 %
04.04.2019 10:34 6,6 C 7,8 C 7,8 C 96 % 997,7 hPa 0,0 l/m 0 min 0 min 176 W/m 0,0 km/h (0 Bft) 97,96 %
04.04.2019 10:36 6,6 C 8,3 C 7,8 C 96 % 997,6 hPa 0,0 l/m 0 min 0 min 178 W/m 0,0 km/h (0 Bft) 97,92 %
04.04.2019 10:38 6,6 C 8,3 C 7,8 C 96 % 997,6 hPa 0,0 l/m 0 min 0 min 183 W/m 0,0 km/h (0 Bft) 97,87 %
04.04.2019 10:40 6,7 C 8,3 C 7,8 C 96 % 997,6 hPa 0,0 l/m 0 min 0 min 187 W/m 3,2 km/h (1 Bft) 97,87 %
04.04.2019 10:42 6,7 C 8,3 C 7,8 C 96 % 997,6 hPa 0,0 l/m 0 min 0 min 184 W/m 3,2 km/h (1 Bft) 95,92 %
04.04.2019 10:44 6,8 C 8,3 C 7,8 C 96 % 997,6 hPa 0,0 l/m 0 min 0 min 185 W/m 3,2 km/h (1 Bft) 94,59 %
04.04.2019 10:46 6,8 C 8,3 C 7,8 C 96 % 997,7 hPa 0,0 l/m 0 min 0 min 188 W/m 9,7 km/h (2 Bft) 95,92 %
04.04.2019 10:48 6,8 C 8,3 C 8,3 C 95 % 997,6 hPa 0,0 l/m 0 min 0 min 195 W/m 9,7 km/h (2 Bft) 97,96 %
04.04.2019 10:50 6,8 C 8,3 C 8,3 C 95 % 997,7 hPa 0,0 l/m 0 min 0 min 205 W/m 6,4 km/h (2 Bft) 95,92 %
04.04.2019 10:52 6,8 C 8,3 C 8,3 C 95 % 997,7 hPa 0,0 l/m 0 min 0 min 203 W/m 3,2 km/h (1 Bft) 95,83 %
04.04.2019 10:54 6,9 C 8,9 C 8,3 C 95 % 997,7 hPa 0,0 l/m 0 min 0 min 199 W/m 6,4 km/h (2 Bft) 97,96 %
04.04.2019 10:56 6,9 C 8,9 C 8,3 C 95 % 997,7 hPa 0,0 l/m 0 min 0 min 199 W/m 6,4 km/h (2 Bft) 95,92 %
04.04.2019 10:58 6,9 C 8,9 C 8,3 C 95 % 997,6 hPa 0,0 l/m 0 min 0 min 203 W/m 6,4 km/h (2 Bft) 100,00 %
04.04.2019 11:00 7,0 C 8,9 C 8,3 C 95 % 997,7 hPa 0,0 l/m 0 min 0 min 198 W/m 9,7 km/h (2 Bft) 95,74 %
04.04.2019 11:02 7,1 C 8,9 C 8,3 C 95 % 997,8 hPa 0,0 l/m 0 min 0 min 198 W/m 9,7 km/h (2 Bft) 96,00 %
04.04.2019 11:04 7,1 C 9,4 C 8,9 C 95 % 997,8 hPa 0,0 l/m 0 min 0 min 216 W/m 6,4 km/h (2 Bft) 97,83 %
04.04.2019 11:06 7,2 C 9,4 C 8,9 C 95 % 997,7 hPa 0,0 l/m 0 min 0 min 211 W/m 9,7 km/h (2 Bft) 100,00 %
04.04.2019 11:08 7,2 C 9,4 C 8,9 C 94 % 997,7 hPa 0,0 l/m 0 min 0 min 226 W/m 6,4 km/h (2 Bft) 100,00 %
04.04.2019 11:10 7,2 C 10,0 C 9,4 C 94 % 997,7 hPa 0,0 l/m 0 min 0 min 270 W/m 9,7 km/h (2 Bft) 100,00 %
04.04.2019 11:12 7,3 C 10,0 C 9,4 C 94 % 997,7 hPa 0,0 l/m 2 min 0 min 292 W/m 6,4 km/h (2 Bft) 93,88 %
04.04.2019 11:14 7,3 C 10,6 C 10,0 C 94 % 997,8 hPa 0,0 l/m 2 min 0 min 302 W/m 6,4 km/h (2 Bft) 100,00 %
04.04.2019 11:16 7,4 C 10,6 C 10,0 C 93 % 997,8 hPa 0,0 l/m 2 min 0 min 295 W/m 6,4 km/h (2 Bft) 97,92 %
04.04.2019 11:18 7,4 C 10,6 C 10,0 C 93 % 997,8 hPa 0,0 l/m 0 min 0 min 285 W/m 9,7 km/h (2 Bft) 100,00 %
04.04.2019 11:20 7,5 C 10,6 C 10,0 C 93 % 997,9 hPa 0,0 l/m 0 min 0 min 267 W/m 6,4 km/h (2 Bft) 97,30 %
04.04.2019 11:22 7,6 C 10,0 C 10,0 C 93 % 997,9 hPa 0,0 l/m 0 min 0 min 238 W/m 6,4 km/h (2 Bft) 100,00 %
04.04.2019 11:24 7,7 C 10,6 C 9,4 C 92 % 997,9 hPa 0,0 l/m 0 min 0 min 215 W/m 3,2 km/h (1 Bft) 97,96 %
04.04.2019 11:26 7,7 C 10,0 C 9,4 C 92 % 997,9 hPa 0,0 l/m 0 min 0 min 217 W/m 6,4 km/h (2 Bft) 97,96 %
04.04.2019 11:28 7,8 C 10,0 C 9,4 C 92 % 997,7 hPa 0,0 l/m 0 min 0 min 228 W/m 6,4 km/h (2 Bft) 100,00 %
04.04.2019 11:30 7,8 C 10,0 C 9,4 C 91 % 997,8 hPa 0,0 l/m 0 min 0 min 231 W/m 6,4 km/h (2 Bft) 100,00 %
04.04.2019 11:32 7,8 C 10,0 C 9,4 C 91 % 997,8 hPa 0,0 l/m 0 min 0 min 230 W/m 6,4 km/h (2 Bft) 100,00 %
04.04.2019 11:34 7,9 C 9,4 C 9,4 C 90 % 997,9 hPa 0,0 l/m 0 min 0 min 228 W/m 6,4 km/h (2 Bft) 97,87 %
04.04.2019 11:36 7,9 C 10,0 C 9,4 C 89 % 997,8 hPa 0,0 l/m 0 min 0 min 223 W/m 6,4 km/h (2 Bft) 91,84 %
04.04.2019 11:38 7,9 C 10,0 C 9,4 C 88 % 997,8 hPa 0,0 l/m 0 min 0 min 218 W/m 6,4 km/h (2 Bft) 64,86 %
04.04.2019 11:40 8,0 C 10,0 C 9,4 C 88 % 997,8 hPa 0,0 l/m 0 min 0 min 219 W/m 6,4 km/h (2 Bft) 72,34 %
04.04.2019 11:42 8,0 C 9,4 C 8,9 C 87 % 997,8 hPa 0,0 l/m 0 min 0 min 221 W/m 3,2 km/h (1 Bft) 75,00 %
04.04.2019 11:44 8,1 C 9,4 C 9,4 C 86 % 997,8 hPa 0,0 l/m 0 min 0 min 223 W/m 3,2 km/h (1 Bft) 93,62 %
04.04.2019 11:46 8,1 C 9,4 C 9,4 C 86 % 997,7 hPa 0,0 l/m 0 min 0 min 219 W/m 6,4 km/h (2 Bft) 83,33 %
04.04.2019 11:48 8,2 C 9,4 C 9,4 C 85 % 997,7 hPa 0,0 l/m 0 min 0 min 222 W/m 6,4 km/h (2 Bft) 85,11 %
04.04.2019 11:50 8,2 C 9,4 C 9,4 C 84 % 997,7 hPa 0,0 l/m 0 min 0 min 215 W/m 6,4 km/h (2 Bft) 68,09 %
04.04.2019 11:52 8,2 C 10,0 C 8,9 C 84 % 997,8 hPa 0,0 l/m 0 min 0 min 213 W/m 6,4 km/h (2 Bft) 84,78 %
04.04.2019 11:54 8,3 C 10,0 C 8,9 C 84 % 997,8 hPa 0,0 l/m 0 min 0 min 213 W/m 3,2 km/h (1 Bft) 88,10 %
04.04.2019 11:56 8,3 C 9,4 C 8,9 C 83 % 997,9 hPa 0,0 l/m 0 min 0 min 215 W/m 6,4 km/h (2 Bft) 89,80 %
04.04.2019 11:58 8,3 C 9,4 C 9,4 C 83 % 997,9 hPa 0,0 l/m 0 min 0 min 218 W/m 6,4 km/h (2 Bft) 89,36 %
04.04.2019 12:00 8,4 C 9,4 C 8,9 C 83 % 997,9 hPa 0,0 l/m 0 min 0 min 215 W/m 6,4 km/h (2 Bft) 78,72 %
04.04.2019 12:02 8,4 C 8,9 C 8,9 C 81 % 997,9 hPa 0,0 l/m 0 min 0 min 212 W/m 6,4 km/h (2 Bft) 84,00 %
04.04.2019 12:04 8,4 C 8,9 C 8,9 C 81 % 997,9 hPa 0,0 l/m 0 min 0 min 210 W/m 3,2 km/h (1 Bft) 95,65 %
04.04.2019 12:07 8,4 C 9,4 C 8,9 C 82 % 998,0 hPa 0,0 l/m 0 min 0 min 201 W/m 6,4 km/h (2 Bft) 95,89 %
04.04.2019 12:08 8,4 C 9,4 C 8,9 C 82 % 998,0 hPa 0,0 l/m 0 min 0 min 202 W/m 6,4 km/h (2 Bft) 100,00 %
04.04.2019 12:10 8,5 C 9,4 C 9,4 C 82 % 997,9 hPa 0,0 l/m 0 min 0 min 205 W/m 9,7 km/h (2 Bft) 93,75 %
04.04.2019 12:12 8,6 C 9,4 C 9,4 C 82 % 997,9 hPa 0,0 l/m 0 min 0 min 196 W/m 6,4 km/h (2 Bft) 95,83 %
04.04.2019 12:14 8,6 C 9,4 C 8,9 C 82 % 997,9 hPa 0,0 l/m 0 min 0 min 190 W/m 9,7 km/h (2 Bft) 97,92 %
04.04.2019 12:16 8,6 C 9,4 C 8,9 C 82 % 997,9 hPa 0,0 l/m 0 min 0 min 190 W/m 6,4 km/h (2 Bft) 93,62 %
04.04.2019 12:18 8,6 C 9,4 C 8,9 C 81 % 997,9 hPa 0,0 l/m 0 min 0 min 195 W/m 6,4 km/h (2 Bft) 93,88 %
04.04.2019 12:20 8,6 C 9,4 C 9,4 C 81 % 997,9 hPa 0,0 l/m 0 min 0 min 200 W/m 6,4 km/h (2 Bft) 97,92 %
04.04.2019 12:22 8,6 C 9,4 C 9,4 C 81 % 997,9 hPa 0,0 l/m 0 min 0 min 203 W/m 9,7 km/h (2 Bft) 95,74 %
04.04.2019 12:24 8,6 C 9,4 C 9,4 C 81 % 997,9 hPa 0,0 l/m 0 min 0 min 212 W/m 6,4 km/h (2 Bft) 97,87 %
04.04.2019 12:26 8,7 C 10,0 C 9,4 C 80 % 997,9 hPa 0,0 l/m 0 min 0 min 234 W/m 9,7 km/h (2 Bft) 97,56 %
04.04.2019 12:28 8,7 C 10,0 C 9,4 C 81 % 997,9 hPa 0,0 l/m 0 min 0 min 244 W/m 6,4 km/h (2 Bft) 93,88 %
04.04.2019 12:30 8,7 C 10,0 C 9,4 C 80 % 997,9 hPa 0,0 l/m 0 min 0 min 236 W/m 6,4 km/h (2 Bft) 95,92 %
04.04.2019 12:32 8,7 C 10,0 C 9,4 C 80 % 997,9 hPa 0,0 l/m 0 min 0 min 228 W/m 9,7 km/h (2 Bft) 95,83 %
04.04.2019 12:34 8,7 C 10,0 C 9,4 C 80 % 997,9 hPa 0,0 l/m 0 min 0 min 236 W/m 6,4 km/h (2 Bft) 95,74 %
04.04.2019 12:36 8,8 C 10,0 C 10,0 C 80 % 997,9 hPa 0,0 l/m 0 min 0 min 249 W/m 9,7 km/h (2 Bft) 97,87 %
04.04.2019 12:38 8,8 C 10,0 C 9,4 C 80 % 997,9 hPa 0,0 l/m 0 min 0 min 266 W/m 9,7 km/h (2 Bft) 97,83 %
04.04.2019 12:40 8,8 C 10,0 C 10,0 C 79 % 997,9 hPa 0,0 l/m 0 min 0 min 285 W/m 6,4 km/h (2 Bft) 97,67 %
04.04.2019 12:42 8,8 C 10,6 C 10,0 C 80 % 997,9 hPa 0,0 l/m 0 min 0 min 302 W/m 6,4 km/h (2 Bft) 93,88 %
04.04.2019 12:44 8,8 C 10,6 C 10,0 C 80 % 997,9 hPa 0,0 l/m 0 min 0 min 309 W/m 6,4 km/h (2 Bft) 94,59 %
04.04.2019 12:46 8,9 C 11,1 C 10,6 C 80 % 997,8 hPa 0,0 l/m 0 min 0 min 300 W/m 9,7 km/h (2 Bft) 93,88 %
04.04.2019 12:48 9,0 C 11,1 C 10,6 C 81 % 997,8 hPa 0,0 l/m 0 min 0 min 310 W/m 9,7 km/h (2 Bft) 91,49 %
04.04.2019 12:50 9,0 C 11,7 C 10,6 C 81 % 997,7 hPa 0,0 l/m 0 min 0 min 315 W/m 3,2 km/h (1 Bft) 95,74 %
04.04.2019 12:52 9,1 C 11,7 C 10,6 C 81 % 997,7 hPa 0,0 l/m 0 min 0 min 297 W/m 6,4 km/h (2 Bft) 95,65 %
04.04.2019 12:54 9,1 C 11,1 C 10,6 C 81 % 997,7 hPa 0,0 l/m 0 min 0 min 288 W/m 9,7 km/h (2 Bft) 95,35 %
04.04.2019 12:56 9,2 C 10,6 C 10,6 C 80 % 997,7 hPa 0,0 l/m 0 min 0 min 287 W/m 9,7 km/h (2 Bft) 85,71 %
04.04.2019 12:58 9,2 C 11,1 C 10,6 C 80 % 997,8 hPa 0,0 l/m 0 min 0 min 293 W/m 9,7 km/h (2 Bft) 83,67 %
04.04.2019 13:00 9,3 C 11,1 C 11,1 C 80 % 997,8 hPa 0,0 l/m 0 min 0 min 316 W/m 6,4 km/h (2 Bft) 89,36 %
04.04.2019 13:02 9,3 C 11,1 C 11,1 C 80 % 997,7 hPa 0,0 l/m 0 min 0 min 334 W/m 9,7 km/h (2 Bft) 78,72 %
04.04.2019 13:04 9,3 C 11,7 C 11,1 C 79 % 997,7 hPa 0,0 l/m 0 min 0 min 339 W/m 6,4 km/h (2 Bft) 67,39 %
04.04.2019 13:06 9,4 C 11,7 C 11,1 C 80 % 997,7 hPa 0,0 l/m 0 min 0 min 328 W/m 6,4 km/h (2 Bft) 83,33 %
04.04.2019 13:08 9,4 C 11,7 C 11,1 C 80 % 997,8 hPa 0,0 l/m 0 min 0 min 322 W/m 9,7 km/h (2 Bft) 88,57 %
04.04.2019 13:10 9,4 C 11,7 C 10,6 C 79 % 997,9 hPa 0,0 l/m 0 min 0 min 302 W/m 6,4 km/h (2 Bft) 91,49 %
04.04.2019 13:12 9,5 C 11,7 C 10,6 C 79 % 997,8 hPa 0,0 l/m 0 min 0 min 288 W/m 9,7 km/h (2 Bft) 87,76 %
04.04.2019 13:14 9,5 C 11,1 C 10,6 C 79 % 997,9 hPa 0,0 l/m 0 min 0 min 240 W/m 6,4 km/h (2 Bft) 95,83 %
04.04.2019 13:16 9,5 C 10,6 C 10,6 C 79 % 997,9 hPa 0,0 l/m 0 min 0 min 225 W/m 9,7 km/h (2 Bft) 95,83 %
04.04.2019 13:18 9,5 C 10,0 C 10,0 C 78 % 997,8 hPa 0,0 l/m 0 min 0 min 222 W/m 9,7 km/h (2 Bft) 95,74 %
04.04.2019 13:20 9,5 C 10,0 C 10,0 C 77 % 997,9 hPa 0,0 l/m 0 min 0 min 234 W/m 9,7 km/h (2 Bft) 91,49 %
04.04.2019 13:22 9,5 C 10,0 C 9,4 C 77 % 998,0 hPa 0,0 l/m 0 min 0 min 221 W/m 9,7 km/h (2 Bft) 97,62 %
04.04.2019 13:24 9,4 C 9,4 C 9,4 C 76 % 998,1 hPa 0,0 l/m 0 min 0 min 184 W/m 6,4 km/h (2 Bft) 97,96 %
04.04.2019 13:26 9,4 C 9,4 C 9,4 C 76 % 998,1 hPa 0,0 l/m 0 min 0 min 168 W/m 12,9 km/h (3 Bft) 93,75 %
04.04.2019 13:28 9,4 C 9,4 C 9,4 C 76 % 998,1 hPa 0,0 l/m 0 min 0 min 162 W/m 9,7 km/h (2 Bft) 97,92 %
04.04.2019 13:30 9,4 C 9,4 C 9,4 C 77 % 998,2 hPa 0,0 l/m 0 min 0 min 145 W/m 6,4 km/h (2 Bft) 100,00 %
04.04.2019 13:32 9,4 C 9,4 C 9,4 C 77 % 998,2 hPa 0,0 l/m 0 min 0 min 138 W/m 6,4 km/h (2 Bft) 100,00 %
04.04.2019 13:34 9,3 C 8,9 C 8,9 C 76 % 998,2 hPa 0,0 l/m 0 min 0 min 140 W/m 6,4 km/h (2 Bft) 100,00 %
04.04.2019 13:36 9,3 C 8,9 C 8,9 C 75 % 998,2 hPa 0,0 l/m 0 min 0 min 134 W/m 9,7 km/h (2 Bft) 98,33 %
04.04.2019 13:38 9,2 C 8,3 C 8,3 C 75 % 998,1 hPa 0,0 l/m 0 min 0 min 132 W/m 6,4 km/h (2 Bft) 100,00 %
04.04.2019 13:40 9,2 C 8,9 C 8,9 C 76 % 998,1 hPa 0,0 l/m 0 min 0 min 135 W/m 6,4 km/h (2 Bft) 100,00 %
04.04.2019 13:42 9,1 C 8,9 C 8,9 C 76 % 998,1 hPa 0,0 l/m 0 min 0 min 130 W/m 9,7 km/h (2 Bft) 100,00 %
04.04.2019 13:44 9,1 C 8,9 C 8,9 C 76 % 998,2 hPa 0,0 l/m 0 min 0 min 114 W/m 6,4 km/h (2 Bft) 100,00 %
04.04.2019 13:46 9,1 C 8,9 C 8,3 C 76 % 998,3 hPa 0,0 l/m 0 min 0 min 92 W/m 9,7 km/h (2 Bft) 100,00 %
04.04.2019 13:48 9,1 C 8,3 C 8,3 C 77 % 998,3 hPa 0,0 l/m 0 min 0 min 80 W/m 6,4 km/h (2 Bft) 100,00 %
04.04.2019 13:50 9,0 C 8,3 C 8,3 C 77 % 998,2 hPa 0,0 l/m 0 min 0 min 85 W/m 9,7 km/h (2 Bft) 100,00 %
04.04.2019 13:52 9,0 C 8,3 C 8,3 C 78 % 998,2 hPa 0,0 l/m 0 min 0 min 91 W/m 6,4 km/h (2 Bft) 100,00 %
04.04.2019 13:54 9,0 C 8,3 C 8,3 C 78 % 998,2 hPa 0,0 l/m 0 min 0 min 95 W/m 6,4 km/h (2 Bft) 100,00 %
04.04.2019 13:56 8,9 C 8,3 C 8,3 C 78 % 998,3 hPa 0,0 l/m 0 min 0 min 90 W/m 6,4 km/h (2 Bft) 100,00 %
04.04.2019 13:58 8,9 C 8,3 C 7,8 C 78 % 998,3 hPa 0,0 l/m 0 min 0 min 87 W/m 12,9 km/h (3 Bft) 100,00 %
04.04.2019 14:00 8,9 C 8,3 C 7,8 C 79 % 998,2 hPa 0,0 l/m 0 min 2 min 84 W/m 9,7 km/h (2 Bft) 100,00 %
04.04.2019 14:02 8,8 C 7,8 C 7,2 C 79 % 998,2 hPa 0,0 l/m 0 min 2 min 79 W/m 9,7 km/h (2 Bft) 97,92 %
04.04.2019 14:04 8,8 C 7,2 C 7,2 C 79 % 998,4 hPa 0,0 l/m 0 min 2 min 74 W/m 12,9 km/h (3 Bft) 97,87 %
04.04.2019 14:06 8,7 C 7,2 C 6,7 C 80 % 998,4 hPa 0,0 l/m 0 min 2 min 70 W/m 6,4 km/h (2 Bft) 96,61 %
04.04.2019 14:08 8,7 C 7,2 C 6,7 C 80 % 998,4 hPa 0,0 l/m 0 min 2 min 68 W/m 9,7 km/h (2 Bft) 100,00 %
04.04.2019 14:10 8,7 C 6,7 C 6,7 C 81 % 998,5 hPa 0,0 l/m 0 min 2 min 68 W/m 9,7 km/h (2 Bft) 97,87 %
04.04.2019 14:12 8,6 C 6,7 C 6,7 C 81 % 998,4 hPa 0,0 l/m 0 min 2 min 70 W/m 6,4 km/h (2 Bft) 100,00 %
04.04.2019 14:14 8,6 C 6,7 C 6,7 C 81 % 998,4 hPa 0,0 l/m 0 min 2 min 77 W/m 9,7 km/h (2 Bft) 95,83 %
04.04.2019 14:16 8,5 C 6,7 C 6,7 C 82 % 998,5 hPa 0,0 l/m 0 min 2 min 88 W/m 6,4 km/h (2 Bft) 100,00 %
04.04.2019 14:18 8,4 C 6,7 C 6,7 C 82 % 998,6 hPa 0,0 l/m 0 min 2 min 92 W/m 6,4 km/h (2 Bft) 100,00 %
04.04.2019 14:20 8,4 C 6,7 C 6,7 C 82 % 998,6 hPa 0,0 l/m 0 min 2 min 94 W/m 9,7 km/h (2 Bft) 100,00 %
04.04.2019 14:22 8,4 C 6,7 C 6,7 C 82 % 998,6 hPa 0,0 l/m 0 min 2 min 93 W/m 9,7 km/h (2 Bft) 100,00 %
04.04.2019 14:24 8,3 C 6,7 C 6,7 C 83 % 998,7 hPa 0,0 l/m 0 min 2 min 91 W/m 6,4 km/h (2 Bft) 93,62 %
04.04.2019 14:26 8,3 C 6,7 C 6,7 C 83 % 998,7 hPa 0,0 l/m 0 min 2 min 87 W/m 6,4 km/h (2 Bft) 97,56 %
04.04.2019 14:28 8,3 C 6,7 C 6,7 C 83 % 998,7 hPa 0,0 l/m 0 min 2 min 84 W/m 6,4 km/h (2 Bft) 100,00 %
04.04.2019 14:30 8,3 C 7,2 C 6,7 C 84 % 998,7 hPa 0,0 l/m 0 min 2 min 87 W/m 6,4 km/h (2 Bft) 100,00 %
04.04.2019 14:32 8,2 C 6,7 C 6,7 C 84 % 998,7 hPa 0,0 l/m 0 min 2 min 90 W/m 6,4 km/h (2 Bft) 100,00 %
04.04.2019 14:34 8,2 C 6,7 C 6,7 C 84 % 998,7 hPa 0,0 l/m 0 min 2 min 88 W/m 6,4 km/h (2 Bft) 95,74 %
04.04.2019 14:36 8,2 C 7,2 C 6,7 C 85 % 998,7 hPa 0,0 l/m 0 min 2 min 88 W/m 6,4 km/h (2 Bft) 100,00 %
04.04.2019 14:38 8,2 C 7,2 C 6,7 C 85 % 998,7 hPa 0,0 l/m 0 min 2 min 91 W/m 6,4 km/h (2 Bft) 100,00 %
04.04.2019 14:40 8,2 C 7,2 C 6,7 C 85 % 998,7 hPa 0,0 l/m 0 min 2 min 108 W/m 6,4 km/h (2 Bft) 97,67 %
04.04.2019 14:42 8,2 C 7,2 C 7,2 C 85 % 998,6 hPa 0,0 l/m 0 min 2 min 124 W/m 6,4 km/h (2 Bft) 98,00 %
04.04.2019 14:44 8,1 C 7,2 C 6,7 C 86 % 998,6 hPa 0,0 l/m 0 min 2 min 120 W/m 9,7 km/h (2 Bft) 95,83 %
04.04.2019 14:46 8,1 C 7,2 C 7,2 C 86 % 998,6 hPa 0,0 l/m 0 min 2 min 129 W/m 6,4 km/h (2 Bft) 97,87 %
04.04.2019 14:48 8,1 C 7,2 C 7,2 C 86 % 998,6 hPa 0,2 l/m 0 min 2 min 137 W/m 6,4 km/h (2 Bft) 97,83 %
04.04.2019 14:50 8,1 C 7,2 C 7,2 C 86 % 998,5 hPa 0,0 l/m 0 min 2 min 129 W/m 9,7 km/h (2 Bft) 97,62 %
04.04.2019 14:52 8,1 C 7,2 C 6,7 C 86 % 998,5 hPa 0,0 l/m 0 min 2 min 116 W/m 9,7 km/h (2 Bft) 95,92 %
04.04.2019 14:54 8,1 C 6,7 C 6,7 C 87 % 998,4 hPa 0,0 l/m 0 min 2 min 104 W/m 9,7 km/h (2 Bft) 97,96 %
04.04.2019 14:56 8,0 C 6,7 C 6,7 C 87 % 998,5 hPa 0,0 l/m 0 min 2 min 104 W/m 6,4 km/h (2 Bft) 97,92 %
04.04.2019 14:58 8,0 C 6,7 C 6,7 C 87 % 998,5 hPa 0,0 l/m 0 min 2 min 108 W/m 6,4 km/h (2 Bft) 100,00 %
04.04.2019 15:00 8,0 C 6,7 C 6,7 C 87 % 998,3 hPa 0,0 l/m 0 min 2 min 113 W/m 6,4 km/h (2 Bft) 97,83 %
04.04.2019 15:02 8,0 C 6,7 C 6,7 C 87 % 998,4 hPa 0,0 l/m 0 min 2 min 119 W/m 3,2 km/h (1 Bft) 97,62 %
04.04.2019 15:04 7,9 C 6,1 C 6,1 C 87 % 998,4 hPa 0,0 l/m 0 min 2 min 122 W/m 3,2 km/h (1 Bft) 97,87 %
04.04.2019 15:06 7,9 C 6,7 C 6,7 C 86 % 998,5 hPa 0,0 l/m 0 min 2 min 125 W/m 6,4 km/h (2 Bft) 98,00 %
04.04.2019 15:08 7,9 C 6,7 C 6,7 C 86 % 998,5 hPa 0,0 l/m 0 min 2 min 126 W/m 9,7 km/h (2 Bft) 95,92 %
04.04.2019 15:10 7,9 C 6,7 C 6,7 C 86 % 998,5 hPa 0,0 l/m 0 min 0 min 122 W/m 6,4 km/h (2 Bft) 91,30 %
04.04.2019 15:12 7,8 C 6,7 C 6,7 C 87 % 998,6 hPa 0,0 l/m 0 min 2 min 122 W/m 6,4 km/h (2 Bft) 95,92 %
04.04.2019 15:14 7,8 C 6,7 C 6,7 C 87 % 998,6 hPa 0,0 l/m 0 min 2 min 127 W/m 9,7 km/h (2 Bft) 95,74 %
04.04.2019 15:16 7,8 C 6,7 C 6,7 C 87 % 998,6 hPa 0,0 l/m 0 min 2 min 133 W/m 6,4 km/h (2 Bft) 97,92 %
04.04.2019 15:18 7,8 C 6,7 C 6,7 C 87 % 998,6 hPa 0,0 l/m 0 min 2 min 138 W/m 6,4 km/h (2 Bft) 95,74 %
04.04.2019 15:20 7,8 C 7,2 C 6,7 C 87 % 998,6 hPa 0,0 l/m 0 min 2 min 139 W/m 6,4 km/h (2 Bft) 97,87 %
04.04.2019 15:22 7,8 C 6,7 C 6,7 C 87 % 998,8 hPa 0,0 l/m 0 min 0 min 134 W/m 6,4 km/h (2 Bft) 93,48 %
04.04.2019 15:24 7,8 C 6,7 C 6,7 C 87 % 998,8 hPa 0,0 l/m 0 min 2 min 126 W/m 6,4 km/h (2 Bft) 97,62 %
04.04.2019 15:26 7,8 C 6,7 C 6,7 C 87 % 998,9 hPa 0,0 l/m 0 min 2 min 128 W/m 3,2 km/h (1 Bft) 97,96 %
04.04.2019 15:28 7,8 C 6,7 C 6,7 C 87 % 999,0 hPa 0,0 l/m 0 min 2 min 138 W/m 6,4 km/h (2 Bft) 93,88 %
04.04.2019 15:30 7,8 C 6,7 C 6,7 C 87 % 999,0 hPa 0,0 l/m 0 min 0 min 131 W/m 6,4 km/h (2 Bft) 93,75 %
04.04.2019 15:32 7,8 C 6,7 C 6,7 C 87 % 999,1 hPa 0,0 l/m 0 min 2 min 117 W/m 6,4 km/h (2 Bft) 93,62 %
04.04.2019 15:34 7,8 C 6,7 C 6,7 C 86 % 999,2 hPa 0,0 l/m 0 min 2 min 111 W/m 6,4 km/h (2 Bft) 93,48 %
04.04.2019 15:36 7,8 C 6,7 C 6,7 C 86 % 999,2 hPa 0,0 l/m 0 min 0 min 117 W/m 6,4 km/h (2 Bft) 93,02 %
04.04.2019 15:38 7,8 C 6,7 C 6,7 C 86 % 999,1 hPa 0,0 l/m 0 min 2 min 129 W/m 6,4 km/h (2 Bft) 89,80 %
04.04.2019 15:40 7,8 C 6,7 C 6,7 C 86 % 999,2 hPa 0,0 l/m 0 min 0 min 137 W/m 6,4 km/h (2 Bft) 91,84 %
04.04.2019 15:42 7,8 C 7,2 C 6,7 C 86 % 999,2 hPa 0,0 l/m 0 min 0 min 139 W/m 6,4 km/h (2 Bft) 93,88 %
04.04.2019 15:44 7,8 C 7,2 C 6,7 C 86 % 999,1 hPa 0,0 l/m 0 min 0 min 141 W/m 6,4 km/h (2 Bft) 91,49 %
04.04.2019 15:46 7,8 C 7,8 C 7,2 C 86 % 999,2 hPa 0,0 l/m 0 min 0 min 151 W/m 6,4 km/h (2 Bft) 91,49 %
04.04.2019 15:48 7,8 C 7,8 C 7,2 C 86 % 999,3 hPa 0,0 l/m 0 min 0 min 148 W/m 6,4 km/h (2 Bft) 91,49 %
04.04.2019 15:50 7,8 C 7,8 C 6,7 C 86 % 999,3 hPa 0,0 l/m 0 min 0 min 131 W/m 6,4 km/h (2 Bft) 92,86 %
04.04.2019 15:52 7,8 C 7,2 C 6,7 C 86 % 999,4 hPa 0,0 l/m 0 min 0 min 119 W/m 6,4 km/h (2 Bft) 93,88 %
04.04.2019 15:54 7,8 C 7,2 C 6,7 C 86 % 999,3 hPa 0,0 l/m 0 min 0 min 120 W/m 6,4 km/h (2 Bft) 93,62 %
04.04.2019 15:56 7,8 C 7,8 C 6,7 C 86 % 999,4 hPa 0,0 l/m 0 min 0 min 113 W/m 3,2 km/h (1 Bft) 93,75 %
04.04.2019 15:58 7,8 C 7,2 C 6,7 C 85 % 999,3 hPa 0,0 l/m 0 min 2 min 111 W/m 6,4 km/h (2 Bft) 91,67 %
04.04.2019 16:00 7,8 C 7,2 C 6,1 C 85 % 999,3 hPa 0,0 l/m 0 min 0 min 122 W/m 3,2 km/h (1 Bft) 95,74 %
04.04.2019 16:02 7,8 C 7,2 C 6,7 C 85 % 999,3 hPa 0,0 l/m 0 min 0 min 129 W/m 6,4 km/h (2 Bft) 95,74 %
04.04.2019 16:04 7,8 C 7,2 C 6,7 C 85 % 999,3 hPa 0,0 l/m 0 min 0 min 138 W/m 6,4 km/h (2 Bft) 95,74 %
04.04.2019 16:06 7,8 C 7,8 C 7,2 C 85 % 999,3 hPa 0,0 l/m 0 min 2 min 143 W/m 6,4 km/h (2 Bft) 93,62 %
04.04.2019 16:08 7,8 C 7,8 C 7,2 C 85 % 999,2 hPa 0,0 l/m 0 min 2 min 147 W/m 6,4 km/h (2 Bft) 92,86 %
04.04.2019 16:10 7,9 C 7,8 C 7,2 C 85 % 999,2 hPa 0,0 l/m 0 min 0 min 157 W/m 6,4 km/h (2 Bft) 95,92 %
04.04.2019 16:12 7,9 C 8,3 C 7,2 C 85 % 999,3 hPa 0,0 l/m 0 min 0 min 151 W/m 6,4 km/h (2 Bft) 100,00 %
04.04.2019 16:14 7,9 C 7,8 C 6,7 C 85 % 999,3 hPa 0,0 l/m 0 min 0 min 132 W/m 6,4 km/h (2 Bft) 91,84 %
04.04.2019 16:16 7,9 C 7,8 C 6,7 C 85 % 999,4 hPa 0,0 l/m 0 min 2 min 121 W/m 3,2 km/h (1 Bft) 97,92 %
04.04.2019 16:18 7,9 C 7,8 C 6,7 C 85 % 999,4 hPa 0,0 l/m 0 min 0 min 115 W/m 3,2 km/h (1 Bft) 97,87 %
04.04.2019 16:20 7,9 C 7,8 C 6,7 C 85 % 999,5 hPa 0,0 l/m 0 min 2 min 111 W/m 6,4 km/h (2 Bft) 100,00 %
04.04.2019 16:22 8,0 C 7,8 C 6,7 C 85 % 999,6 hPa 0,0 l/m 0 min 0 min 108 W/m 6,4 km/h (2 Bft) 100,00 %
04.04.2019 16:24 8,0 C 7,8 C 7,2 C 85 % 999,6 hPa 0,0 l/m 0 min 0 min 102 W/m 3,2 km/h (1 Bft) 100,00 %
04.04.2019 16:26 8,0 C 7,8 C 6,7 C 85 % 999,7 hPa 0,0 l/m 0 min 0 min 98 W/m 6,4 km/h (2 Bft) 97,96 %
04.04.2019 16:28 8,0 C 7,8 C 6,7 C 85 % 999,7 hPa 0,0 l/m 0 min 0 min 96 W/m 6,4 km/h (2 Bft) 97,92 %
04.04.2019 16:30 7,9 C 7,8 C 6,7 C 84 % 999,7 hPa 0,0 l/m 0 min 0 min 91 W/m 3,2 km/h (1 Bft) 97,87 %
04.04.2019 16:32 8,0 C 7,8 C 6,7 C 84 % 999,7 hPa 0,0 l/m 0 min 0 min 89 W/m 0,0 km/h (0 Bft) 100,00 %
04.04.2019 16:34 7,9 C 7,8 C 7,2 C 84 % 999,7 hPa 0,0 l/m 0 min 0 min 91 W/m 3,2 km/h (1 Bft) 97,62 %
04.04.2019 16:36 7,9 C 7,8 C 7,2 C 84 % 999,6 hPa 0,0 l/m 0 min 0 min 96 W/m 3,2 km/h (1 Bft) 100,00 %
04.04.2019 16:38 7,9 C 7,8 C 7,2 C 84 % 999,6 hPa 0,0 l/m 0 min 2 min 101 W/m 6,4 km/h (2 Bft) 100,00 %
04.04.2019 16:40 8,0 C 8,3 C 7,2 C 84 % 999,5 hPa 0,0 l/m 0 min 0 min 99 W/m 6,4 km/h (2 Bft) 100,00 %
04.04.2019 16:42 7,9 C 7,8 C 7,2 C 84 % 999,5 hPa 0,0 l/m 0 min 0 min 90 W/m 6,4 km/h (2 Bft) 100,00 %
04.04.2019 16:44 7,9 C 7,8 C 7,2 C 83 % 999,6 hPa 0,0 l/m 0 min 2 min 77 W/m 12,9 km/h (3 Bft) 97,83 %
04.04.2019 16:46 7,9 C 7,2 C 6,7 C 83 % 999,6 hPa 0,0 l/m 0 min 0 min 66 W/m 6,4 km/h (2 Bft) 100,00 %
04.04.2019 16:48 7,9 C 7,2 C 6,7 C 84 % 999,6 hPa 0,0 l/m 0 min 2 min 64 W/m 12,9 km/h (3 Bft) 100,00 %
04.04.2019 16:50 7,9 C 6,7 C 6,7 C 85 % 999,7 hPa 0,0 l/m 0 min 2 min 67 W/m 6,4 km/h (2 Bft) 97,96 %
04.04.2019 16:52 7,9 C 6,7 C 6,7 C 85 % 999,7 hPa 0,0 l/m 0 min 2 min 68 W/m 6,4 km/h (2 Bft) 100,00 %
04.04.2019 16:54 7,9 C 6,7 C 6,7 C 85 % 999,8 hPa 0,0 l/m 0 min 0 min 72 W/m 9,7 km/h (2 Bft) 100,00 %
04.04.2019 16:56 7,8 C 6,7 C 6,7 C 85 % 999,6 hPa 0,0 l/m 0 min 2 min 78 W/m 9,7 km/h (2 Bft) 100,00 %
04.04.2019 16:58 7,8 C 6,7 C 6,7 C 86 % 999,6 hPa 0,0 l/m 0 min 2 min 85 W/m 9,7 km/h (2 Bft) 100,00 %
04.04.2019 17:00 7,8 C 6,7 C 6,7 C 86 % 999,7 hPa 0,0 l/m 0 min 0 min 84 W/m 9,7 km/h (2 Bft) 95,74 %
04.04.2019 17:02 7,7 C 6,7 C 6,1 C 86 % 999,8 hPa 0,0 l/m 0 min 2 min 78 W/m 9,7 km/h (2 Bft) 100,00 %
04.04.2019 17:04 7,7 C 6,7 C 6,1 C 86 % 999,7 hPa 0,0 l/m 0 min 0 min 72 W/m 9,7 km/h (2 Bft) 100,00 %
04.04.2019 17:06 7,7 C 6,7 C 6,1 C 86 % 999,9 hPa 0,0 l/m 0 min 0 min 69 W/m 6,4 km/h (2 Bft) 98,00 %
04.04.2019 17:08 7,6 C 6,7 C 6,1 C 86 % 999,9 hPa 0,0 l/m 0 min 0 min 70 W/m 6,4 km/h (2 Bft) 100,00 %
04.04.2019 17:10 7,6 C 6,7 C 6,1 C 87 % 1000,0 hPa 0,0 l/m 0 min 0 min 74 W/m 6,4 km/h (2 Bft) 100,00 %
04.04.2019 17:12 7,6 C 6,7 C 6,1 C 87 % 1000,0 hPa 0,0 l/m 0 min 2 min 78 W/m 9,7 km/h (2 Bft) 100,00 %
04.04.2019 17:14 7,6 C 6,7 C 6,1 C 87 % 999,9 hPa 0,0 l/m 0 min 2 min 83 W/m 6,4 km/h (2 Bft) 97,96 %
04.04.2019 17:16 7,5 C 6,7 C 6,1 C 87 % 999,9 hPa 0,0 l/m 0 min 2 min 84 W/m 9,7 km/h (2 Bft) 100,00 %
04.04.2019 17:18 7,4 C 6,7 C 6,1 C 87 % 999,9 hPa 0,0 l/m 0 min 2 min 83 W/m 9,7 km/h (2 Bft) 100,00 %
04.04.2019 17:20 7,4 C 6,7 C 6,1 C 87 % 999,7 hPa 0,0 l/m 0 min 2 min 84 W/m 6,4 km/h (2 Bft) 97,83 %
04.04.2019 17:22 7,4 C 6,7 C 6,1 C 88 % 999,8 hPa 0,0 l/m 0 min 2 min 83 W/m 9,7 km/h (2 Bft) 100,00 %
04.04.2019 17:24 7,3 C 6,7 C 6,1 C 88 % 999,8 hPa 0,0 l/m 0 min 2 min 81 W/m 9,7 km/h (2 Bft) 100,00 %
04.04.2019 17:26 7,3 C 6,7 C 6,1 C 88 % 999,8 hPa 0,0 l/m 0 min 2 min 83 W/m 6,4 km/h (2 Bft) 100,00 %
04.04.2019 17:28 7,3 C 6,7 C 5,6 C 88 % 999,9 hPa 0,0 l/m 0 min 2 min 80 W/m 6,4 km/h (2 Bft) 100,00 %
04.04.2019 17:30 7,2 C 6,7 C 6,1 C 88 % 999,9 hPa 0,0 l/m 0 min 2 min 79 W/m 6,4 km/h (2 Bft) 100,00 %
04.04.2019 17:32 7,2 C 6,7 C 6,1 C 88 % 999,8 hPa 0,0 l/m 0 min 2 min 82 W/m 6,4 km/h (2 Bft) 100,00 %
04.04.2019 17:34 7,2 C 6,7 C 6,1 C 88 % 999,8 hPa 0,0 l/m 0 min 2 min 90 W/m 9,7 km/h (2 Bft) 100,00 %
04.04.2019 17:36 7,2 C 6,7 C 6,1 C 88 % 999,8 hPa 0,0 l/m 0 min 2 min 98 W/m 6,4 km/h (2 Bft) 100,00 %
04.04.2019 17:38 7,2 C 6,1 C 6,1 C 88 % 999,8 hPa 0,2 l/m 0 min 0 min 110 W/m 6,4 km/h (2 Bft) 72,97 %
04.04.2019 17:40 7,2 C 6,7 C 6,1 C 88 % 999,8 hPa 0,0 l/m 0 min 0 min 123 W/m 6,4 km/h (2 Bft) 83,67 %
04.04.2019 17:42 7,1 C 6,7 C 6,1 C 88 % 999,9 hPa 0,0 l/m 0 min 0 min 126 W/m 3,2 km/h (1 Bft) 100,00 %
04.04.2019 17:44 7,2 C 6,7 C 6,1 C 88 % 999,8 hPa 0,0 l/m 0 min 2 min 123 W/m 6,4 km/h (2 Bft) 82,61 %
04.04.2019 17:46 7,1 C 7,2 C 6,1 C 88 % 1000,0 hPa 0,0 l/m 0 min 0 min 115 W/m 6,4 km/h (2 Bft) 87,23 %
04.04.2019 17:48 7,1 C 7,2 C 6,7 C 88 % 1000,0 hPa 0,0 l/m 0 min 0 min 120 W/m 9,7 km/h (2 Bft) 62,79 %
04.04.2019 17:50 7,1 C 7,2 C 6,7 C 88 % 999,9 hPa 0,0 l/m 0 min 0 min 121 W/m 9,7 km/h (2 Bft) 71,43 %
04.04.2019 17:52 7,1 C 7,2 C 6,7 C 88 % 1000,0 hPa 0,0 l/m 0 min 0 min 110 W/m 12,9 km/h (3 Bft) 71,43 %
04.04.2019 17:54 7,1 C 7,2 C 6,7 C 88 % 999,9 hPa 0,0 l/m 0 min 0 min 106 W/m 6,4 km/h (2 Bft) 62,50 %
04.04.2019 17:56 7,1 C 7,2 C 6,7 C 88 % 999,9 hPa 0,0 l/m 0 min 0 min 112 W/m 6,4 km/h (2 Bft) 81,25 %
04.04.2019 17:58 7,1 C 7,2 C 6,7 C 88 % 1000,1 hPa 0,0 l/m 0 min 0 min 117 W/m 9,7 km/h (2 Bft) 97,87 %
04.04.2019 18:00 7,1 C 7,2 C 6,7 C 88 % 1000,0 hPa 0,0 l/m 0 min 0 min 119 W/m 6,4 km/h (2 Bft) 82,98 %
04.04.2019 18:02 7,1 C 7,2 C 6,7 C 88 % 1000,1 hPa 0,0 l/m 0 min 0 min 121 W/m 6,4 km/h (2 Bft) 66,67 %
04.04.2019 18:04 7,1 C 7,2 C 6,7 C 87 % 1000,2 hPa 0,0 l/m 0 min 0 min 121 W/m 3,2 km/h (1 Bft) 76,60 %
04.04.2019 18:07 7,1 C 7,2 C 6,7 C 87 % 1000,2 hPa 0,0 l/m 0 min 0 min 114 W/m 6,4 km/h (2 Bft) 66,67 %
04.04.2019 18:08 7,1 C 7,2 C 6,7 C 87 % 1000,2 hPa 0,0 l/m 0 min 0 min 111 W/m 6,4 km/h (2 Bft) 47,83 %
04.04.2019 18:10 7,1 C 7,2 C 6,7 C 86 % 1000,3 hPa 0,0 l/m 0 min 0 min 100 W/m 6,4 km/h (2 Bft) 57,45 %
04.04.2019 18:12 7,1 C 7,2 C 6,7 C 86 % 1000,3 hPa 0,0 l/m 0 min 0 min 95 W/m 6,4 km/h (2 Bft) 51,02 %
04.04.2019 18:14 7,1 C 7,2 C 6,7 C 86 % 1000,3 hPa 0,0 l/m 0 min 0 min 90 W/m 3,2 km/h (1 Bft) 58,33 %
04.04.2019 18:16 7,1 C 7,2 C 6,7 C 86 % 1000,4 hPa 0,0 l/m 0 min 0 min 84 W/m 6,4 km/h (2 Bft) 57,45 %
04.04.2019 18:18 7,1 C 7,2 C 6,7 C 86 % 1000,4 hPa 0,0 l/m 0 min 0 min 79 W/m 6,4 km/h (2 Bft) 95,65 %
04.04.2019 18:20 7,1 C 7,2 C 6,7 C 86 % 1000,4 hPa 0,0 l/m 0 min 0 min 74 W/m 6,4 km/h (2 Bft) 80,85 %
04.04.2019 18:22 7,1 C 7,2 C 6,7 C 86 % 1000,4 hPa 0,0 l/m 0 min 0 min 70 W/m 3,2 km/h (1 Bft) 85,71 %
04.04.2019 18:24 7,1 C 7,2 C 6,7 C 86 % 1000,4 hPa 0,0 l/m 0 min 0 min 69 W/m 3,2 km/h (1 Bft) 75,51 %
04.04.2019 18:26 7,1 C 7,2 C 6,7 C 86 % 1000,4 hPa 0,0 l/m 0 min 0 min 69 W/m 6,4 km/h (2 Bft) 77,55 %
04.04.2019 18:28 7,1 C 6,7 C 6,7 C 86 % 1000,3 hPa 0,0 l/m 0 min 0 min 67 W/m 6,4 km/h (2 Bft) 87,50 %
04.04.2019 18:30 7,1 C 6,7 C 6,7 C 86 % 1000,3 hPa 0,0 l/m 0 min 0 min 68 W/m 3,2 km/h (1 Bft) 89,13 %
04.04.2019 18:32 7,1 C 7,2 C 6,7 C 86 % 1000,3 hPa 0,0 l/m 0 min 0 min 70 W/m 3,2 km/h (1 Bft) 91,49 %
04.04.2019 18:34 7,1 C 7,2 C 6,7 C 86 % 1000,3 hPa 0,0 l/m 0 min 0 min 74 W/m 3,2 km/h (1 Bft) 90,70 %
04.04.2019 18:36 7,1 C 7,2 C 6,7 C 86 % 1000,1 hPa 0,0 l/m 0 min 0 min 77 W/m 6,4 km/h (2 Bft) 89,80 %
04.04.2019 18:38 7,2 C 7,2 C 6,7 C 86 % 1000,2 hPa 0,0 l/m 0 min 0 min 82 W/m 3,2 km/h (1 Bft) 91,84 %
04.04.2019 18:40 7,2 C 7,2 C 6,7 C 86 % 1000,2 hPa 0,0 l/m 0 min 0 min 82 W/m 6,4 km/h (2 Bft) 93,75 %
04.04.2019 18:42 7,2 C 7,2 C 6,7 C 86 % 1000,2 hPa 0,0 l/m 0 min 0 min 79 W/m 0,0 km/h (0 Bft) 85,42 %
04.04.2019 18:44 7,2 C 6,7 C 6,7 C 86 % 1000,3 hPa 0,0 l/m 0 min 0 min 73 W/m 6,4 km/h (2 Bft) 93,62 %
04.04.2019 18:46 7,2 C 6,7 C 6,7 C 86 % 1000,2 hPa 0,0 l/m 0 min 0 min 66 W/m 6,4 km/h (2 Bft) 91,49 %
04.04.2019 18:48 7,2 C 6,7 C 6,7 C 86 % 1000,2 hPa 0,0 l/m 0 min 0 min 58 W/m 6,4 km/h (2 Bft) 95,35 %
04.04.2019 18:50 7,2 C 6,7 C 6,7 C 86 % 1000,3 hPa 0,0 l/m 0 min 0 min 51 W/m 6,4 km/h (2 Bft) 93,88 %
04.04.2019 18:52 7,1 C 6,7 C 6,1 C 86 % 1000,4 hPa 0,0 l/m 0 min 0 min 48 W/m 6,4 km/h (2 Bft) 95,83 %
04.04.2019 18:54 7,2 C 6,7 C 6,1 C 86 % 1000,5 hPa 0,0 l/m 0 min 0 min 46 W/m 6,4 km/h (2 Bft) 95,74 %
04.04.2019 18:56 7,1 C 6,7 C 6,1 C 86 % 1000,4 hPa 0,0 l/m 0 min 0 min 45 W/m 9,7 km/h (2 Bft) 95,74 %
04.04.2019 18:58 7,1 C 6,7 C 6,1 C 86 % 1000,4 hPa 0,0 l/m 0 min 0 min 42 W/m 9,7 km/h (2 Bft) 95,24 %
04.04.2019 19:00 7,1 C 6,7 C 6,1 C 86 % 1000,4 hPa 0,0 l/m 0 min 0 min 40 W/m 6,4 km/h (2 Bft) 95,74 %
04.04.2019 19:02 7,1 C 6,7 C 6,1 C 86 % 1000,4 hPa 0,0 l/m 0 min 0 min 41 W/m 6,4 km/h (2 Bft) 92,00 %
04.04.2019 19:04 7,1 C 6,7 C 6,1 C 86 % 1000,4 hPa 0,0 l/m 0 min 0 min 43 W/m 6,4 km/h (2 Bft) 93,48 %
04.04.2019 19:06 7,1 C 6,7 C 6,1 C 86 % 1000,5 hPa 0,0 l/m 0 min 0 min 51 W/m 6,4 km/h (2 Bft) 94,00 %
04.04.2019 19:08 7,1 C 6,7 C 6,1 C 86 % 1000,5 hPa 0,0 l/m 0 min 0 min 55 W/m 6,4 km/h (2 Bft) 95,74 %
04.04.2019 19:10 7,1 C 6,7 C 6,1 C 86 % 1000,6 hPa 0,0 l/m 0 min 0 min 60 W/m 6,4 km/h (2 Bft) 97,87 %
04.04.2019 19:12 7,1 C 6,7 C 6,1 C 86 % 1000,7 hPa 0,0 l/m 0 min 0 min 60 W/m 6,4 km/h (2 Bft) 93,62 %
04.04.2019 19:14 7,1 C 6,7 C 6,1 C 86 % 1000,8 hPa 0,0 l/m 0 min 0 min 52 W/m 6,4 km/h (2 Bft) 95,74 %
04.04.2019 19:16 7,1 C 6,7 C 6,1 C 86 % 1000,8 hPa 0,0 l/m 0 min 0 min 45 W/m 6,4 km/h (2 Bft) 95,35 %
04.04.2019 19:18 7,1 C 6,7 C 6,1 C 87 % 1000,9 hPa 0,0 l/m 0 min 0 min 42 W/m 6,4 km/h (2 Bft) 97,92 %
04.04.2019 19:20 7,1 C 6,7 C 6,1 C 86 % 1001,0 hPa 0,0 l/m 0 min 0 min 40 W/m 9,7 km/h (2 Bft) 97,96 %
04.04.2019 19:22 7,1 C 6,7 C 6,1 C 87 % 1001,0 hPa 0,0 l/m 0 min 0 min 38 W/m 0,0 km/h (0 Bft) 93,88 %
04.04.2019 19:24 7,1 C 6,7 C 5,6 C 87 % 1001,0 hPa 0,0 l/m 0 min 0 min 37 W/m 3,2 km/h (1 Bft) 97,92 %
04.04.2019 19:26 7,1 C 6,7 C 5,6 C 86 % 1000,9 hPa 0,0 l/m 0 min 0 min 34 W/m 3,2 km/h (1 Bft) 95,74 %
04.04.2019 19:28 7,1 C 6,1 C 5,6 C 86 % 1000,9 hPa 0,0 l/m 0 min 0 min 33 W/m 0,0 km/h (0 Bft) 97,83 %
04.04.2019 19:30 7,0 C 6,1 C 5,6 C 86 % 1000,9 hPa 0,0 l/m 0 min 0 min 30 W/m 0,0 km/h (0 Bft) 95,24 %
04.04.2019 19:32 7,0 C 6,1 C 5,6 C 86 % 1000,9 hPa 0,0 l/m 0 min 0 min 27 W/m 0,0 km/h (0 Bft) 98,00 %
04.04.2019 19:34 7,0 C 6,1 C 5,6 C 87 % 1000,9 hPa 0,0 l/m 0 min 0 min 26 W/m 3,2 km/h (1 Bft) 94,59 %
04.04.2019 19:36 7,0 C 6,1 C 5,6 C 87 % 1000,9 hPa 0,0 l/m 0 min 0 min 25 W/m 0,0 km/h (0 Bft) 96,72 %
04.04.2019 19:38 7,0 C 6,1 C 5,6 C 87 % 1000,9 hPa 0,0 l/m 0 min 0 min 24 W/m 0,0 km/h (0 Bft) 97,22 %
04.04.2019 19:40 7,0 C 5,6 C 5,0 C 87 % 1001,0 hPa 0,0 l/m 0 min 0 min 23 W/m 0,0 km/h (0 Bft) 97,83 %
04.04.2019 19:42 7,0 C 5,6 C 5,0 C 87 % 1001,1 hPa 0,0 l/m 0 min 0 min 21 W/m 0,0 km/h (0 Bft) 95,74 %
04.04.2019 19:44 6,9 C 6,1 C 5,0 C 87 % 1001,2 hPa 0,0 l/m 0 min 0 min 20 W/m 0,0 km/h (0 Bft) 100,00 %
04.04.2019 19:46 6,9 C 6,1 C 5,0 C 87 % 1001,2 hPa 0,0 l/m 0 min 0 min 19 W/m 0,0 km/h (0 Bft) 100,00 %
04.04.2019 19:48 6,9 C 6,1 C 5,0 C 87 % 1001,2 hPa 0,0 l/m 0 min 0 min 17 W/m 0,0 km/h (0 Bft) 95,92 %
04.04.2019 19:50 6,9 C 5,6 C 5,0 C 87 % 1001,2 hPa 0,0 l/m 0 min 0 min 14 W/m 0,0 km/h (0 Bft) 93,88 %
04.04.2019 19:52 6,9 C 5,6 C 5,0 C 87 % 1001,2 hPa 0,0 l/m 0 min 0 min 12 W/m 0,0 km/h (0 Bft) 95,74 %
04.04.2019 19:54 6,9 C 5,6 C 5,0 C 87 % 1001,1 hPa 0,0 l/m 0 min 0 min 11 W/m 0,0 km/h (0 Bft) 97,87 %
04.04.2019 19:56 6,8 C 5,6 C 5,0 C 87 % 1001,0 hPa 0,0 l/m 0 min 0 min 11 W/m 3,2 km/h (1 Bft) 100,00 %
04.04.2019 19:58 6,8 C 5,6 C 5,0 C 87 % 1001,0 hPa 0,0 l/m 0 min 0 min 11 W/m 3,2 km/h (1 Bft) 100,00 %
04.04.2019 20:00 6,8 C 5,6 C 4,4 C 87 % 1001,0 hPa 0,0 l/m 0 min 0 min 9 W/m 3,2 km/h (1 Bft) 100,00 %
04.04.2019 20:02 6,8 C 5,0 C 4,4 C 87 % 1001,0 hPa 0,0 l/m 0 min 0 min 6 W/m 3,2 km/h (1 Bft) 89,80 %
04.04.2019 20:04 6,8 C 5,0 C 4,4 C 87 % 1001,0 hPa 0,0 l/m 0 min 0 min 5 W/m 3,2 km/h (1 Bft) 91,49 %
04.04.2019 20:06 6,7 C 5,0 C 4,4 C 87 % 1001,0 hPa 0,0 l/m 0 min 0 min 0 W/m 3,2 km/h (1 Bft) 93,33 %
04.04.2019 20:08 6,7 C 5,0 C 4,4 C 87 % 1000,9 hPa 0,0 l/m 0 min 0 min 0 W/m 3,2 km/h (1 Bft) 91,43 %
04.04.2019 20:10 6,7 C 5,0 C 4,4 C 87 % 1001,0 hPa 0,0 l/m 0 min 0 min 0 W/m 0,0 km/h (0 Bft) 89,36 %
04.04.2019 20:12 6,6 C 5,0 C 4,4 C 87 % 1001,1 hPa 0,0 l/m 0 min 0 min 0 W/m 0,0 km/h (0 Bft) 97,87 %
04.04.2019 20:14 6,6 C 5,0 C 4,4 C 87 % 1001,2 hPa 0,0 l/m 0 min 0 min 0 W/m 0,0 km/h (0 Bft) 95,74 %
04.04.2019 20:16 6,6 C 5,0 C 4,4 C 87 % 1001,2 hPa 0,0 l/m 0 min 0 min 0 W/m 3,2 km/h (1 Bft) 97,62 %
04.04.2019 20:18 6,6 C 5,0 C 4,4 C 87 % 1001,4 hPa 0,0 l/m 0 min 0 min 0 W/m 3,2 km/h (1 Bft) 95,92 %
04.04.2019 20:20 6,5 C 5,0 C 4,4 C 87 % 1001,4 hPa 0,0 l/m 0 min 0 min 0 W/m 0,0 km/h (0 Bft) 93,88 %
04.04.2019 20:22 6,5 C 5,0 C 4,4 C 87 % 1001,3 hPa 0,0 l/m 0 min 0 min 0 W/m 0,0 km/h (0 Bft) 97,96 %
04.04.2019 20:24 6,4 C 5,0 C 4,4 C 87 % 1001,3 hPa 0,0 l/m 0 min 0 min 0 W/m 0,0 km/h (0 Bft) 97,92 %
04.04.2019 20:26 6,4 C 5,0 C 3,9 C 87 % 1001,4 hPa 0,0 l/m 0 min 0 min 0 W/m 0,0 km/h (0 Bft) 93,48 %
04.04.2019 20:28 6,4 C 4,4 C 3,9 C 87 % 1001,4 hPa 0,0 l/m 0 min 0 min 0 W/m 0,0 km/h (0 Bft) 97,87 %
04.04.2019 20:30 6,4 C 4,4 C 3,9 C 87 % 1001,5 hPa 0,0 l/m 0 min 0 min 0 W/m 0,0 km/h (0 Bft) 95,24 %
04.04.2019 20:32 6,4 C 4,4 C 3,9 C 87 % 1001,6 hPa 0,0 l/m 0 min 0 min 0 W/m 0,0 km/h (0 Bft) 96,15 %
04.04.2019 20:34 6,3 C 4,4 C 3,9 C 87 % 1001,7 hPa 0,0 l/m 0 min 0 min 0 W/m 0,0 km/h (0 Bft) 97,96 %
04.04.2019 20:36 6,3 C 4,4 C 3,9 C 87 % 1001,7 hPa 0,0 l/m 0 min 0 min 0 W/m 0,0 km/h (0 Bft) 93,75 %
04.04.2019 20:38 6,3 C 4,4 C 3,9 C 87 % 1001,8 hPa 0,0 l/m 0 min 0 min 0 W/m 0,0 km/h (0 Bft) 97,83 %
04.04.2019 20:40 6,2 C 4,4 C 3,9 C 87 % 1001,9 hPa 0,0 l/m 0 min 0 min 0 W/m 0,0 km/h (0 Bft) 97,87 %
04.04.2019 20:42 6,2 C 4,4 C 3,9 C 87 % 1001,9 hPa 0,0 l/m 0 min 0 min 0 W/m 0,0 km/h (0 Bft) 97,62 %
04.04.2019 20:44 6,2 C 4,4 C 3,9 C 87 % 1001,8 hPa 0,0 l/m 0 min 0 min 0 W/m 0,0 km/h (0 Bft) 95,92 %
04.04.2019 20:46 6,1 C 4,4 C 3,9 C 87 % 1001,9 hPa 0,0 l/m 0 min 0 min 0 W/m 0,0 km/h (0 Bft) 97,96 %
04.04.2019 20:48 6,1 C 4,4 C 3,9 C 87 % 1001,9 hPa 0,0 l/m 0 min 0 min 0 W/m 0,0 km/h (0 Bft) 97,87 %
04.04.2019 20:50 6,1 C 4,4 C 3,9 C 87 % 1001,9 hPa 0,0 l/m 0 min 0 min 0 W/m 0,0 km/h (0 Bft) 97,87 %
04.04.2019 20:52 6,1 C 4,4 C 3,9 C 87 % 1001,9 hPa 0,0 l/m 0 min 0 min 0 W/m 0,0 km/h (0 Bft) 95,74 %
04.04.2019 20:54 6,0 C 4,4 C 3,9 C 87 % 1001,8 hPa 0,0 l/m 0 min 0 min 0 W/m 0,0 km/h (0 Bft) 97,62 %
04.04.2019 20:56 6,0 C 4,4 C 3,9 C 87 % 1001,9 hPa 0,0 l/m 0 min 0 min 0 W/m 0,0 km/h (0 Bft) 95,92 %
04.04.2019 20:58 5,9 C 4,4 C 3,9 C 87 % 1001,9 hPa 0,0 l/m 0 min 0 min 0 W/m 0,0 km/h (0 Bft) 98,00 %
04.04.2019 21:00 5,9 C 4,4 C 3,3 C 87 % 1001,8 hPa 0,0 l/m 0 min 0 min 0 W/m 0,0 km/h (0 Bft) 100,00 %
04.04.2019 21:02 5,9 C 4,4 C 3,3 C 87 % 1001,7 hPa 0,0 l/m 0 min 0 min 0 W/m 0,0 km/h (0 Bft) 100,00 %
04.04.2019 21:04 5,9 C 3,9 C 3,3 C 87 % 1001,8 hPa 0,0 l/m 0 min 0 min 0 W/m 0,0 km/h (0 Bft) 100,00 %
04.04.2019 21:06 5,8 C 3,9 C 3,3 C 87 % 1001,8 hPa 0,0 l/m 0 min 0 min 0 W/m 0,0 km/h (0 Bft) 95,74 %
04.04.2019 21:08 5,8 C 4,4 C 3,3 C 87 % 1001,8 hPa 0,0 l/m 0 min 0 min 0 W/m 0,0 km/h (0 Bft) 100,00 %
04.04.2019 21:10 5,8 C 4,4 C 3,3 C 88 % 1001,9 hPa 0,0 l/m 0 min 0 min 0 W/m 3,2 km/h (1 Bft) 100,00 %
04.04.2019 21:12 5,7 C 5,0 C 3,9 C 88 % 1001,9 hPa 0,0 l/m 0 min 0 min 0 W/m 6,4 km/h (2 Bft) 97,92 %
04.04.2019 21:14 5,7 C 5,0 C 3,9 C 88 % 1002,0 hPa 0,0 l/m 0 min 0 min 0 W/m 3,2 km/h (1 Bft) 97,87 %
04.04.2019 21:16 5,7 C 5,0 C 3,9 C 88 % 1001,9 hPa 0,0 l/m 0 min 0 min 0 W/m 0,0 km/h (0 Bft) 100,00 %
04.04.2019 21:18 5,7 C 5,0 C 3,9 C 88 % 1001,9 hPa 0,0 l/m 0 min 0 min 0 W/m 0,0 km/h (0 Bft) 97,92 %
04.04.2019 21:20 5,7 C 5,0 C 3,9 C 88 % 1001,8 hPa 0,0 l/m 0 min 0 min 0 W/m 0,0 km/h (0 Bft) 95,74 %
04.04.2019 21:22 5,6 C 5,0 C 3,9 C 89 % 1001,8 hPa 0,0 l/m 0 min 0 min 0 W/m 0,0 km/h (0 Bft) 95,74 %
04.04.2019 21:24 5,6 C 4,4 C 3,3 C 89 % 1001,9 hPa 0,0 l/m 0 min 0 min 0 W/m 0,0 km/h (0 Bft) 97,62 %
04.04.2019 21:26 5,6 C 4,4 C 3,3 C 89 % 1001,9 hPa 0,0 l/m 0 min 0 min 0 W/m 0,0 km/h (0 Bft) 95,92 %
04.04.2019 21:28 5,6 C 4,4 C 3,3 C 89 % 1001,9 hPa 0,0 l/m 0 min 0 min 0 W/m 0,0 km/h (0 Bft) 94,59 %
04.04.2019 21:30 5,6 C 4,4 C 3,3 C 89 % 1001,9 hPa 0,0 l/m 0 min 0 min 0 W/m 0,0 km/h (0 Bft) 95,83 %
04.04.2019 21:32 5,6 C 4,4 C 3,3 C 89 % 1001,9 hPa 0,0 l/m 0 min 0 min 0 W/m 0,0 km/h (0 Bft) 93,88 %
04.04.2019 21:34 5,5 C 4,4 C 3,3 C 89 % 1002,0 hPa 0,0 l/m 0 min 0 min 0 W/m 0,0 km/h (0 Bft) 95,74 %
04.04.2019 21:36 5,5 C 4,4 C 3,3 C 89 % 1002,0 hPa 0,0 l/m 0 min 0 min 0 W/m 0,0 km/h (0 Bft) 98,28 %
04.04.2019 21:38 5,5 C 3,9 C 3,3 C 89 % 1002,0 hPa 0,0 l/m 0 min 0 min 0 W/m 0,0 km/h (0 Bft) 96,77 %
04.04.2019 21:40 5,4 C 4,4 C 3,3 C 89 % 1002,1 hPa 0,0 l/m 0 min 0 min 0 W/m 0,0 km/h (0 Bft) 95,92 %
04.04.2019 21:42 5,4 C 4,4 C 3,3 C 89 % 1002,1 hPa 0,0 l/m 0 min 0 min 0 W/m 0,0 km/h (0 Bft) 93,88 %
04.04.2019 21:44 5,4 C 4,4 C 3,3 C 89 % 1002,0 hPa 0,0 l/m 0 min 0 min 0 W/m 0,0 km/h (0 Bft) 95,92 %
04.04.2019 21:46 5,4 C 4,4 C 3,3 C 89 % 1002,0 hPa 0,0 l/m 0 min 0 min 0 W/m 0,0 km/h (0 Bft) 97,92 %
04.04.2019 21:48 5,4 C 4,4 C 2,8 C 89 % 1002,0 hPa 0,0 l/m 0 min 0 min 0 W/m 0,0 km/h (0 Bft) 97,83 %
04.04.2019 21:50 5,3 C 3,9 C 2,8 C 89 % 1002,1 hPa 0,0 l/m 0 min 0 min 0 W/m 0,0 km/h (0 Bft) 97,87 %
04.04.2019 21:52 5,3 C 3,9 C 2,8 C 89 % 1002,1 hPa 0,0 l/m 0 min 0 min 0 W/m 0,0 km/h (0 Bft) 97,62 %
04.04.2019 21:54 5,3 C 3,9 C 2,8 C 89 % 1002,1 hPa 0,0 l/m 0 min 0 min 0 W/m 0,0 km/h (0 Bft) 95,92 %
04.04.2019 21:56 5,3 C 3,3 C 2,8 C 89 % 1002,0 hPa 0,0 l/m 0 min 0 min 0 W/m 0,0 km/h (0 Bft) 97,96 %
04.04.2019 21:58 5,3 C 3,3 C 2,8 C 89 % 1002,0 hPa 0,0 l/m 0 min 0 min 0 W/m 0,0 km/h (0 Bft) 95,83 %
04.04.2019 22:00 5,2 C 3,3 C 2,8 C 89 % 1002,0 hPa 0,0 l/m 0 min 0 min 0 W/m 0,0 km/h (0 Bft) 97,83 %
04.04.2019 22:02 5,2 C 3,3 C 2,8 C 89 % 1002,0 hPa 0,0 l/m 0 min 0 min 0 W/m 0,0 km/h (0 Bft) 95,74 %
04.04.2019 22:04 5,2 C 3,3 C 2,8 C 89 % 1002,1 hPa 0,0 l/m 0 min 0 min 0 W/m 0,0 km/h (0 Bft) 97,87 %
04.04.2019 22:06 5,1 C 3,3 C 2,8 C 89 % 1002,0 hPa 0,0 l/m 0 min 0 min 0 W/m 0,0 km/h (0 Bft) 93,62 %
04.04.2019 22:08 5,1 C 3,3 C 2,8 C 89 % 1002,0 hPa 0,0 l/m 0 min 0 min 0 W/m 0,0 km/h (0 Bft) 97,62 %
04.04.2019 22:10 5,1 C 3,3 C 2,8 C 89 % 1002,1 hPa 0,0 l/m 0 min 0 min 0 W/m 0,0 km/h (0 Bft) 97,87 %
04.04.2019 22:12 5,1 C 3,3 C 2,8 C 89 % 1002,1 hPa 0,0 l/m 0 min 0 min 0 W/m 0,0 km/h (0 Bft) 100,00 %
04.04.2019 22:14 5,0 C 3,3 C 2,8 C 89 % 1002,0 hPa 0,0 l/m 0 min 0 min 0 W/m 0,0 km/h (0 Bft) 100,00 %
04.04.2019 22:16 5,0 C 3,3 C 2,8 C 89 % 1002,0 hPa 0,0 l/m 0 min 0 min 0 W/m 0,0 km/h (0 Bft) 93,88 %
04.04.2019 22:18 5,0 C 3,3 C 2,8 C 89 % 1002,0 hPa 0,0 l/m 0 min 0 min 0 W/m 0,0 km/h (0 Bft) 97,92 %
04.04.2019 22:20 4,9 C 3,3 C 2,8 C 89 % 1002,0 hPa 0,0 l/m 0 min 0 min 0 W/m 0,0 km/h (0 Bft) 100,00 %
04.04.2019 22:22 4,9 C 3,3 C 2,8 C 89 % 1002,0 hPa 0,0 l/m 0 min 0 min 0 W/m 0,0 km/h (0 Bft) 100,00 %
04.04.2019 22:24 4,9 C 3,3 C 2,8 C 89 % 1002,1 hPa 0,0 l/m 0 min 0 min 0 W/m 0,0 km/h (0 Bft) 95,24 %
04.04.2019 22:26 4,9 C 3,3 C 2,8 C 89 % 1002,2 hPa 0,0 l/m 0 min 0 min 0 W/m 0,0 km/h (0 Bft) 95,92 %
04.04.2019 22:28 4,8 C 3,3 C 2,8 C 89 % 1002,3 hPa 0,0 l/m 0 min 0 min 0 W/m 0,0 km/h (0 Bft) 95,92 %
04.04.2019 22:30 4,8 C 3,3 C 2,8 C 89 % 1002,3 hPa 0,0 l/m 0 min 0 min 0 W/m 0,0 km/h (0 Bft) 95,83 %
04.04.2019 22:32 4,8 C 3,3 C 2,8 C 89 % 1002,3 hPa 0,0 l/m 0 min 0 min 0 W/m 0,0 km/h (0 Bft) 95,74 %
04.04.2019 22:34 4,8 C 3,3 C 2,8 C 89 % 1002,3 hPa 0,0 l/m 0 min 0 min 0 W/m 0,0 km/h (0 Bft) 95,65 %
04.04.2019 22:36 4,8 C 3,3 C 2,8 C 89 % 1002,3 hPa 0,0 l/m 0 min 0 min 0 W/m 0,0 km/h (0 Bft) 93,02 %
04.04.2019 22:38 4,7 C 3,3 C 2,8 C 89 % 1002,3 hPa 0,0 l/m 0 min 0 min 0 W/m 0,0 km/h (0 Bft) 93,88 %
04.04.2019 22:40 4,7 C 3,3 C 2,8 C 89 % 1002,4 hPa 0,0 l/m 0 min 0 min 0 W/m 0,0 km/h (0 Bft) 93,62 %
04.04.2019 22:42 4,7 C 3,3 C 2,8 C 89 % 1002,3 hPa 0,0 l/m 0 min 0 min 0 W/m 0,0 km/h (0 Bft) 95,92 %
04.04.2019 22:44 4,7 C 3,3 C 2,8 C 89 % 1002,2 hPa 0,0 l/m 0 min 0 min 0 W/m 0,0 km/h (0 Bft) 95,74 %
04.04.2019 22:46 4,7 C 3,3 C 2,8 C 89 % 1002,3 hPa 0,0 l/m 0 min 0 min 0 W/m 0,0 km/h (0 Bft) 95,65 %
04.04.2019 22:48 4,7 C 3,3 C 2,8 C 89 % 1002,3 hPa 0,0 l/m 0 min 0 min 0 W/m 0,0 km/h (0 Bft) 95,74 %
04.04.2019 22:50 4,6 C 3,3 C 2,8 C 89 % 1002,3 hPa 0,0 l/m 0 min 0 min 0 W/m 0,0 km/h (0 Bft) 95,35 %
04.04.2019 22:52 4,6 C 3,3 C 2,8 C 89 % 1002,3 hPa 0,0 l/m 0 min 0 min 0 W/m 0,0 km/h (0 Bft) 97,96 %
04.04.2019 22:54 4,6 C 3,3 C 2,8 C 89 % 1002,3 hPa 0,0 l/m 0 min 0 min 0 W/m 0,0 km/h (0 Bft) 91,84 %
04.04.2019 22:56 4,6 C 3,3 C 2,8 C 89 % 1002,3 hPa 0,0 l/m 0 min 0 min 0 W/m 0,0 km/h (0 Bft) 95,83 %
04.04.2019 22:58 4,6 C 3,3 C 2,8 C 89 % 1002,3 hPa 0,0 l/m 0 min 0 min 0 W/m 0,0 km/h (0 Bft) 95,83 %
04.04.2019 23:00 4,6 C 3,3 C 2,8 C 89 % 1002,3 hPa 0,0 l/m 0 min 0 min 0 W/m 0,0 km/h (0 Bft) 93,62 %
04.04.2019 23:02 4,6 C 3,3 C 2,8 C 90 % 1002,4 hPa 0,0 l/m 0 min 0 min 0 W/m 0,0 km/h (0 Bft) 97,87 %
04.04.2019 23:04 4,6 C 3,3 C 2,8 C 90 % 1002,4 hPa 0,0 l/m 0 min 0 min 0 W/m 0,0 km/h (0 Bft) 97,87 %
04.04.2019 23:06 4,5 C 3,3 C 2,8 C 90 % 1002,4 hPa 0,0 l/m 0 min 0 min 0 W/m 0,0 km/h (0 Bft) 97,87 %
04.04.2019 23:08 4,5 C 3,3 C 2,8 C 90 % 1002,4 hPa 0,0 l/m 0 min 0 min 0 W/m 0,0 km/h (0 Bft) 97,83 %
04.04.2019 23:10 4,5 C 3,3 C 2,8 C 90 % 1002,3 hPa 0,0 l/m 0 min 0 min 0 W/m 0,0 km/h (0 Bft) 97,87 %
04.04.2019 23:12 4,5 C 3,3 C 2,8 C 90 % 1002,4 hPa 0,0 l/m 0 min 0 min 0 W/m 0,0 km/h (0 Bft) 97,87 %
04.04.2019 23:14 4,5 C 3,3 C 2,8 C 90 % 1002,4 hPa 0,0 l/m 0 min 0 min 0 W/m 0,0 km/h (0 Bft) 97,87 %
04.04.2019 23:16 4,5 C 3,3 C 2,8 C 90 % 1002,5 hPa 0,0 l/m 0 min 0 min 0 W/m 0,0 km/h (0 Bft) 97,87 %
04.04.2019 23:18 4,5 C 3,3 C 2,8 C 90 % 1002,5 hPa 0,0 l/m 0 min 0 min 0 W/m 0,0 km/h (0 Bft) 97,87 %
04.04.2019 23:20 4,5 C 3,3 C 2,8 C 90 % 1002,5 hPa 0,0 l/m 0 min 0 min 0 W/m 0,0 km/h (0 Bft) 97,83 %
04.04.2019 23:22 4,4 C 3,3 C 2,8 C 90 % 1002,5 hPa 0,0 l/m 0 min 0 min 0 W/m 0,0 km/h (0 Bft) 97,87 %
04.04.2019 23:24 4,4 C 3,3 C 2,8 C 90 % 1002,6 hPa 0,0 l/m 0 min 0 min 0 W/m 0,0 km/h (0 Bft) 97,87 %
04.04.2019 23:26 4,4 C 3,3 C 2,8 C 90 % 1002,7 hPa 0,0 l/m 0 min 0 min 0 W/m 0,0 km/h (0 Bft) 95,74 %
04.04.2019 23:28 4,4 C 3,3 C 2,8 C 90 % 1002,8 hPa 0,0 l/m 0 min 0 min 0 W/m 0,0 km/h (0 Bft) 97,87 %
04.04.2019 23:30 4,4 C 3,3 C 2,8 C 91 % 1002,8 hPa 0,0 l/m 0 min 0 min 0 W/m 0,0 km/h (0 Bft) 95,74 %
04.04.2019 23:32 4,4 C 3,3 C 2,8 C 91 % 1002,8 hPa 0,0 l/m 0 min 0 min 0 W/m 0,0 km/h (0 Bft) 93,48 %
04.04.2019 23:34 4,4 C 3,3 C 2,8 C 91 % 1002,8 hPa 0,0 l/m 0 min 0 min 0 W/m 0,0 km/h (0 Bft) 97,87 %
04.04.2019 23:36 4,4 C 3,3 C 2,8 C 91 % 1002,9 hPa 0,0 l/m 0 min 0 min 0 W/m 0,0 km/h (0 Bft) 97,87 %
04.04.2019 23:38 4,4 C 3,3 C 2,8 C 91 % 1002,8 hPa 0,0 l/m 0 min 0 min 0 W/m 0,0 km/h (0 Bft) 100,00 %
04.04.2019 23:40 4,4 C 3,3 C 2,8 C 91 % 1002,8 hPa 0,0 l/m 0 min 0 min 0 W/m 0,0 km/h (0 Bft) 100,00 %
04.04.2019 23:42 4,4 C 3,3 C 2,8 C 91 % 1002,8 hPa 0,0 l/m 0 min 0 min 0 W/m 0,0 km/h (0 Bft) 100,00 %
04.04.2019 23:44 4,4 C 3,3 C 2,8 C 91 % 1002,7 hPa 0,0 l/m 0 min 0 min 0 W/m 0,0 km/h (0 Bft) 97,87 %
04.04.2019 23:46 4,4 C 3,3 C 2,8 C 91 % 1002,8 hPa 0,0 l/m 0 min 0 min 0 W/m 0,0 km/h (0 Bft) 100,00 %
04.04.2019 23:48 4,4 C 3,3 C 2,8 C 91 % 1002,6 hPa 0,0 l/m 0 min 0 min 0 W/m 0,0 km/h (0 Bft) 100,00 %
04.04.2019 23:50 4,4 C 3,3 C 2,8 C 91 % 1002,5 hPa 0,0 l/m 0 min 0 min 0 W/m 0,0 km/h (0 Bft) 100,00 %
04.04.2019 23:52 4,4 C 3,3 C 2,8 C 91 % 1002,6 hPa 0,0 l/m 0 min 0 min 0 W/m 0,0 km/h (0 Bft) 100,00 %
04.04.2019 23:54 4,4 C 3,3 C 2,8 C 91 % 1002,7 hPa 0,0 l/m 0 min 0 min 0 W/m 0,0 km/h (0 Bft) 97,83 %
04.04.2019 23:56 4,4 C 3,3 C 2,8 C 91 % 1002,8 hPa 0,0 l/m 0 min 0 min 0 W/m 0,0 km/h (0 Bft) 97,87 %
04.04.2019 23:58 4,4 C 3,9 C 2,8 C 91 % 1002,8 hPa 0,0 l/m 0 min 0 min 0 W/m 0,0 km/h (0 Bft) 100,00 %
_ Min-Zeit 05:50 04:54 04:42 13:36 06:42 - - - - 00:04 18:08
Minimum _ 3,9 C 2,8 C 2,2 C 75 % 996,5 hPa - - - - 0,0 km/h (0 Bft) 47,83 %
_ Max-Zeit 13:12 12:50 13:00 09:14 23:36 14:48 11:12 14:00 13:04 13:26 00:36
Maximum _ 9,5 C 11,7 C 11,1 C 96 % 1002,9 hPa 0,2 l/m 2 min 2 min 339 W/m 12,9 km/h
W-NW (3 Bft)
100,00 %
Durchschnitt _ 6,2 C 5,8 C 5,3 C 89 % 998,8 hPa #0,4 l/m #6 min. #2:26 h 118 W/m 2,9 km/h (1 Bft) 95,94 %
© 2019 W. Hausmann